﻿<?xml version="1.0" encoding="utf-8" standalone="yes"?>
<gpx version="1.0" creator="CanWay - http://www.canwaygps.com" xmlns:xsi="http://www.w3.org/2001/XMLSchema-instance" xmlns="http://www.topografix.com/GPX/1/0" xsi:schemaLocation="http://www.topografix.com/GPX/1/0 http://www.topografix.com/GPX/1/0/gpx.xsd">
<time>2026-03-27T15:42:02Z</time>
<bounds minlat="35.852566" minlon="139.383338" maxlat="35.956457" maxlon="139.536768" />
<trk>
<name>2026-03-27 07-37</name>
<trkseg>
<trkpt lat="35.942101" lon="139.536768">
<ele>-11.2</ele>
<time>2026-03-26T22:37:04Z</time>
<speed>0.0</speed>
</trkpt>
<trkpt lat="35.942056" lon="139.536718">
<ele>0.4</ele>
<time>2026-03-26T22:39:20Z</time>
<speed>2.1</speed>
</trkpt>
<trkpt lat="35.942046" lon="139.536674">
<ele>0.6</ele>
<time>2026-03-26T22:39:22Z</time>
<speed>2.4</speed>
</trkpt>
<trkpt lat="35.942043" lon="139.536648">
<ele>0.6</ele>
<time>2026-03-26T22:39:23Z</time>
<speed>2.9</speed>
</trkpt>
<trkpt lat="35.942014" lon="139.536523">
<ele>0.8</ele>
<time>2026-03-26T22:39:27Z</time>
<speed>3.2</speed>
</trkpt>
<trkpt lat="35.941988" lon="139.536420">
<ele>0.8</ele>
<time>2026-03-26T22:39:30Z</time>
<speed>3.7</speed>
</trkpt>
<trkpt lat="35.941915" lon="139.536105">
<ele>1.4</ele>
<time>2026-03-26T22:39:38Z</time>
<speed>4.5</speed>
</trkpt>
<trkpt lat="35.941894" lon="139.536009">
<ele>1.6</ele>
<time>2026-03-26T22:39:40Z</time>
<speed>5.0</speed>
</trkpt>
<trkpt lat="35.941825" lon="139.535688">
<ele>2.2</ele>
<time>2026-03-26T22:39:46Z</time>
<speed>4.8</speed>
</trkpt>
<trkpt lat="35.941713" lon="139.535225">
<ele>2.6</ele>
<time>2026-03-26T22:39:55Z</time>
<speed>4.2</speed>
</trkpt>
<trkpt lat="35.941703" lon="139.535180">
<ele>2.6</ele>
<time>2026-03-26T22:39:56Z</time>
<speed>3.3</speed>
</trkpt>
<trkpt lat="35.941646" lon="139.534971">
<ele>2.6</ele>
<time>2026-03-26T22:40:02Z</time>
<speed>0.1</speed>
</trkpt>
<trkpt lat="35.941636" lon="139.534920">
<ele>2.8</ele>
<time>2026-03-26T22:40:54Z</time>
<speed>2.5</speed>
</trkpt>
<trkpt lat="35.941630" lon="139.534893">
<ele>2.8</ele>
<time>2026-03-26T22:40:55Z</time>
<speed>4.1</speed>
</trkpt>
<trkpt lat="35.941575" lon="139.534673">
<ele>2.6</ele>
<time>2026-03-26T22:41:00Z</time>
<speed>4.9</speed>
</trkpt>
<trkpt lat="35.941474" lon="139.534202">
<ele>2.4</ele>
<time>2026-03-26T22:41:09Z</time>
<speed>5.6</speed>
</trkpt>
<trkpt lat="35.941362" lon="139.533723">
<ele>2.0</ele>
<time>2026-03-26T22:41:17Z</time>
<speed>5.7</speed>
</trkpt>
<trkpt lat="35.941306" lon="139.533481">
<ele>1.6</ele>
<time>2026-03-26T22:41:21Z</time>
<speed>4.4</speed>
</trkpt>
<trkpt lat="35.941282" lon="139.533388">
<ele>1.2</ele>
<time>2026-03-26T22:41:23Z</time>
<speed>3.4</speed>
</trkpt>
<trkpt lat="35.941265" lon="139.533237">
<ele>0.6</ele>
<time>2026-03-26T22:41:27Z</time>
<speed>4.0</speed>
</trkpt>
<trkpt lat="35.941290" lon="139.533205">
<ele>0.6</ele>
<time>2026-03-26T22:41:28Z</time>
<speed>4.5</speed>
</trkpt>
<trkpt lat="35.941326" lon="139.533181">
<ele>0.4</ele>
<time>2026-03-26T22:41:29Z</time>
<speed>5.7</speed>
</trkpt>
<trkpt lat="35.941424" lon="139.533147">
<ele>0.0</ele>
<time>2026-03-26T22:41:31Z</time>
<speed>6.7</speed>
</trkpt>
<trkpt lat="35.941482" lon="139.533128">
<ele>0.0</ele>
<time>2026-03-26T22:41:32Z</time>
<speed>6.6</speed>
</trkpt>
<trkpt lat="35.941653" lon="139.533069">
<ele>-0.6</ele>
<time>2026-03-26T22:41:35Z</time>
<speed>5.5</speed>
</trkpt>
<trkpt lat="35.941701" lon="139.533056">
<ele>-1.0</ele>
<time>2026-03-26T22:41:36Z</time>
<speed>4.3</speed>
</trkpt>
<trkpt lat="35.941816" lon="139.533037">
<ele>-1.8</ele>
<time>2026-03-26T22:41:39Z</time>
<speed>4.3</speed>
</trkpt>
<trkpt lat="35.941892" lon="139.533023">
<ele>-2.2</ele>
<time>2026-03-26T22:41:41Z</time>
<speed>5.2</speed>
</trkpt>
<trkpt lat="35.942154" lon="139.532895">
<ele>-2.4</ele>
<time>2026-03-26T22:41:47Z</time>
<speed>5.5</speed>
</trkpt>
<trkpt lat="35.942606" lon="139.532638">
<ele>-2.2</ele>
<time>2026-03-26T22:41:57Z</time>
<speed>5.8</speed>
</trkpt>
<trkpt lat="35.942985" lon="139.532425">
<ele>-2.2</ele>
<time>2026-03-26T22:42:05Z</time>
<speed>5.9</speed>
</trkpt>
<trkpt lat="35.943467" lon="139.532149">
<ele>-2.4</ele>
<time>2026-03-26T22:42:15Z</time>
<speed>6.0</speed>
</trkpt>
<trkpt lat="35.943947" lon="139.531837">
<ele>-2.4</ele>
<time>2026-03-26T22:42:25Z</time>
<speed>6.0</speed>
</trkpt>
<trkpt lat="35.943994" lon="139.531805">
<ele>-2.4</ele>
<time>2026-03-26T22:42:26Z</time>
<speed>6.1</speed>
</trkpt>
<trkpt lat="35.944415" lon="139.531495">
<ele>-2.4</ele>
<time>2026-03-26T22:42:35Z</time>
<speed>6.0</speed>
</trkpt>
<trkpt lat="35.944872" lon="139.531144">
<ele>-2.4</ele>
<time>2026-03-26T22:42:45Z</time>
<speed>6.0</speed>
</trkpt>
<trkpt lat="35.945281" lon="139.530826">
<ele>-2.4</ele>
<time>2026-03-26T22:42:54Z</time>
<speed>6.0</speed>
</trkpt>
<trkpt lat="35.945622" lon="139.530503">
<ele>-2.4</ele>
<time>2026-03-26T22:43:02Z</time>
<speed>6.0</speed>
</trkpt>
<trkpt lat="35.946041" lon="139.530088">
<ele>-2.4</ele>
<time>2026-03-26T22:43:12Z</time>
<speed>5.4</speed>
</trkpt>
<trkpt lat="35.946324" lon="139.529763">
<ele>-2.4</ele>
<time>2026-03-26T22:43:20Z</time>
<speed>5.4</speed>
</trkpt>
<trkpt lat="35.946567" lon="139.529466">
<ele>-2.2</ele>
<time>2026-03-26T22:43:27Z</time>
<speed>5.0</speed>
</trkpt>
<trkpt lat="35.946839" lon="139.529100">
<ele>-2.0</ele>
<time>2026-03-26T22:43:36Z</time>
<speed>5.2</speed>
</trkpt>
<trkpt lat="35.947049" lon="139.528786">
<ele>-2.0</ele>
<time>2026-03-26T22:43:43Z</time>
<speed>5.7</speed>
</trkpt>
<trkpt lat="35.947367" lon="139.528286">
<ele>-2.2</ele>
<time>2026-03-26T22:43:53Z</time>
<speed>5.9</speed>
</trkpt>
<trkpt lat="35.947643" lon="139.527804">
<ele>-2.0</ele>
<time>2026-03-26T22:44:02Z</time>
<speed>5.9</speed>
</trkpt>
<trkpt lat="35.947892" lon="139.527301">
<ele>-2.0</ele>
<time>2026-03-26T22:44:11Z</time>
<speed>5.9</speed>
</trkpt>
<trkpt lat="35.948152" lon="139.526728">
<ele>-2.0</ele>
<time>2026-03-26T22:44:21Z</time>
<speed>6.0</speed>
</trkpt>
<trkpt lat="35.948446" lon="139.526098">
<ele>-2.0</ele>
<time>2026-03-26T22:44:32Z</time>
<speed>6.0</speed>
</trkpt>
<trkpt lat="35.948708" lon="139.525514">
<ele>-2.0</ele>
<time>2026-03-26T22:44:42Z</time>
<speed>6.1</speed>
</trkpt>
<trkpt lat="35.948921" lon="139.524968">
<ele>-2.2</ele>
<time>2026-03-26T22:44:51Z</time>
<speed>6.1</speed>
</trkpt>
<trkpt lat="35.949097" lon="139.524395">
<ele>-2.2</ele>
<time>2026-03-26T22:45:00Z</time>
<speed>6.2</speed>
</trkpt>
<trkpt lat="35.949261" lon="139.523737">
<ele>-2.2</ele>
<time>2026-03-26T22:45:10Z</time>
<speed>6.1</speed>
</trkpt>
<trkpt lat="35.949421" lon="139.523084">
<ele>-2.4</ele>
<time>2026-03-26T22:45:20Z</time>
<speed>5.9</speed>
</trkpt>
<trkpt lat="35.949549" lon="139.522584">
<ele>-2.2</ele>
<time>2026-03-26T22:45:28Z</time>
<speed>5.6</speed>
</trkpt>
<trkpt lat="35.949700" lon="139.521989">
<ele>-2.0</ele>
<time>2026-03-26T22:45:38Z</time>
<speed>5.8</speed>
</trkpt>
<trkpt lat="35.949872" lon="139.521315">
<ele>-2.0</ele>
<time>2026-03-26T22:45:49Z</time>
<speed>5.8</speed>
</trkpt>
<trkpt lat="35.950056" lon="139.520642">
<ele>-2.2</ele>
<time>2026-03-26T22:46:00Z</time>
<speed>5.8</speed>
</trkpt>
<trkpt lat="35.950183" lon="139.520148">
<ele>-2.2</ele>
<time>2026-03-26T22:46:08Z</time>
<speed>6.1</speed>
</trkpt>
<trkpt lat="35.950343" lon="139.519575">
<ele>-2.4</ele>
<time>2026-03-26T22:46:17Z</time>
<speed>6.4</speed>
</trkpt>
<trkpt lat="35.950488" lon="139.519032">
<ele>-2.4</ele>
<time>2026-03-26T22:46:25Z</time>
<speed>6.5</speed>
</trkpt>
<trkpt lat="35.950667" lon="139.518418">
<ele>-2.4</ele>
<time>2026-03-26T22:46:34Z</time>
<speed>6.4</speed>
</trkpt>
<trkpt lat="35.950770" lon="139.518008">
<ele>-2.4</ele>
<time>2026-03-26T22:46:40Z</time>
<speed>6.7</speed>
</trkpt>
<trkpt lat="35.950959" lon="139.517382">
<ele>-2.2</ele>
<time>2026-03-26T22:46:49Z</time>
<speed>6.5</speed>
</trkpt>
<trkpt lat="35.951002" lon="139.517247">
<ele>-2.2</ele>
<time>2026-03-26T22:46:51Z</time>
<speed>6.7</speed>
</trkpt>
<trkpt lat="35.951189" lon="139.516622">
<ele>-2.2</ele>
<time>2026-03-26T22:47:00Z</time>
<speed>6.7</speed>
</trkpt>
<trkpt lat="35.951276" lon="139.516345">
<ele>-2.2</ele>
<time>2026-03-26T22:47:04Z</time>
<speed>6.4</speed>
</trkpt>
<trkpt lat="35.951480" lon="139.515676">
<ele>-2.0</ele>
<time>2026-03-26T22:47:14Z</time>
<speed>6.3</speed>
</trkpt>
<trkpt lat="35.951500" lon="139.515610">
<ele>-2.0</ele>
<time>2026-03-26T22:47:15Z</time>
<speed>6.2</speed>
</trkpt>
<trkpt lat="35.951521" lon="139.515546">
<ele>-2.0</ele>
<time>2026-03-26T22:47:16Z</time>
<speed>6.4</speed>
</trkpt>
<trkpt lat="35.951677" lon="139.515010">
<ele>-2.0</ele>
<time>2026-03-26T22:47:24Z</time>
<speed>6.5</speed>
</trkpt>
<trkpt lat="35.951883" lon="139.514335">
<ele>-2.0</ele>
<time>2026-03-26T22:47:34Z</time>
<speed>6.4</speed>
</trkpt>
<trkpt lat="35.951903" lon="139.514268">
<ele>-2.0</ele>
<time>2026-03-26T22:47:35Z</time>
<speed>6.3</speed>
</trkpt>
<trkpt lat="35.952106" lon="139.513609">
<ele>-2.0</ele>
<time>2026-03-26T22:47:45Z</time>
<speed>5.7</speed>
</trkpt>
<trkpt lat="35.952125" lon="139.513550">
<ele>-2.0</ele>
<time>2026-03-26T22:47:46Z</time>
<speed>5.6</speed>
</trkpt>
<trkpt lat="35.952272" lon="139.513087">
<ele>-2.0</ele>
<time>2026-03-26T22:47:54Z</time>
<speed>6.4</speed>
</trkpt>
<trkpt lat="35.952454" lon="139.512493">
<ele>-1.8</ele>
<time>2026-03-26T22:48:03Z</time>
<speed>6.5</speed>
</trkpt>
<trkpt lat="35.952655" lon="139.511895">
<ele>-1.6</ele>
<time>2026-03-26T22:48:12Z</time>
<speed>6.2</speed>
</trkpt>
<trkpt lat="35.952858" lon="139.511250">
<ele>-1.6</ele>
<time>2026-03-26T22:48:22Z</time>
<speed>6.3</speed>
</trkpt>
<trkpt lat="35.953039" lon="139.510659">
<ele>-1.6</ele>
<time>2026-03-26T22:48:31Z</time>
<speed>6.4</speed>
</trkpt>
<trkpt lat="35.953234" lon="139.509993">
<ele>-1.6</ele>
<time>2026-03-26T22:48:41Z</time>
<speed>6.5</speed>
</trkpt>
<trkpt lat="35.953430" lon="139.509317">
<ele>-1.4</ele>
<time>2026-03-26T22:48:51Z</time>
<speed>6.4</speed>
</trkpt>
<trkpt lat="35.953622" lon="139.508648">
<ele>-1.4</ele>
<time>2026-03-26T22:49:01Z</time>
<speed>6.3</speed>
</trkpt>
<trkpt lat="35.953661" lon="139.508516">
<ele>-1.4</ele>
<time>2026-03-26T22:49:03Z</time>
<speed>6.3</speed>
</trkpt>
<trkpt lat="35.953852" lon="139.507853">
<ele>-1.4</ele>
<time>2026-03-26T22:49:13Z</time>
<speed>6.5</speed>
</trkpt>
<trkpt lat="35.954047" lon="139.507170">
<ele>-1.4</ele>
<time>2026-03-26T22:49:23Z</time>
<speed>6.6</speed>
</trkpt>
<trkpt lat="35.954068" lon="139.507101">
<ele>-1.4</ele>
<time>2026-03-26T22:49:24Z</time>
<speed>6.5</speed>
</trkpt>
<trkpt lat="35.954247" lon="139.506418">
<ele>-1.4</ele>
<time>2026-03-26T22:49:34Z</time>
<speed>6.3</speed>
</trkpt>
<trkpt lat="35.954403" lon="139.505741">
<ele>-1.4</ele>
<time>2026-03-26T22:49:44Z</time>
<speed>6.2</speed>
</trkpt>
<trkpt lat="35.954537" lon="139.505140">
<ele>-1.2</ele>
<time>2026-03-26T22:49:53Z</time>
<speed>6.4</speed>
</trkpt>
<trkpt lat="35.954659" lon="139.504521">
<ele>-1.0</ele>
<time>2026-03-26T22:50:02Z</time>
<speed>6.4</speed>
</trkpt>
<trkpt lat="35.954759" lon="139.503891">
<ele>-1.0</ele>
<time>2026-03-26T22:50:11Z</time>
<speed>6.4</speed>
</trkpt>
<trkpt lat="35.954848" lon="139.503188">
<ele>-1.0</ele>
<time>2026-03-26T22:50:21Z</time>
<speed>6.4</speed>
</trkpt>
<trkpt lat="35.954907" lon="139.502698">
<ele>-0.8</ele>
<time>2026-03-26T22:50:28Z</time>
<speed>6.1</speed>
</trkpt>
<trkpt lat="35.954933" lon="139.502497">
<ele>-0.8</ele>
<time>2026-03-26T22:50:31Z</time>
<speed>6.2</speed>
</trkpt>
<trkpt lat="35.955009" lon="139.501810">
<ele>-0.6</ele>
<time>2026-03-26T22:50:41Z</time>
<speed>6.1</speed>
</trkpt>
<trkpt lat="35.955014" lon="139.501742">
<ele>-0.6</ele>
<time>2026-03-26T22:50:42Z</time>
<speed>5.6</speed>
</trkpt>
<trkpt lat="35.955027" lon="139.501053">
<ele>-0.6</ele>
<time>2026-03-26T22:50:53Z</time>
<speed>6.2</speed>
</trkpt>
<trkpt lat="35.955017" lon="139.500506">
<ele>-0.6</ele>
<time>2026-03-26T22:51:01Z</time>
<speed>6.3</speed>
</trkpt>
<trkpt lat="35.955010" lon="139.499881">
<ele>-0.6</ele>
<time>2026-03-26T22:51:10Z</time>
<speed>6.2</speed>
</trkpt>
<trkpt lat="35.954982" lon="139.499191">
<ele>-0.8</ele>
<time>2026-03-26T22:51:20Z</time>
<speed>6.3</speed>
</trkpt>
<trkpt lat="35.954916" lon="139.498492">
<ele>-0.8</ele>
<time>2026-03-26T22:51:30Z</time>
<speed>6.3</speed>
</trkpt>
<trkpt lat="35.954911" lon="139.498422">
<ele>-0.8</ele>
<time>2026-03-26T22:51:31Z</time>
<speed>6.2</speed>
</trkpt>
<trkpt lat="35.954852" lon="139.497734">
<ele>-0.8</ele>
<time>2026-03-26T22:51:41Z</time>
<speed>6.3</speed>
</trkpt>
<trkpt lat="35.954846" lon="139.497664">
<ele>-0.8</ele>
<time>2026-03-26T22:51:42Z</time>
<speed>6.3</speed>
</trkpt>
<trkpt lat="35.954772" lon="139.497038">
<ele>-0.6</ele>
<time>2026-03-26T22:51:51Z</time>
<speed>6.5</speed>
</trkpt>
<trkpt lat="35.954691" lon="139.496541">
<ele>-0.6</ele>
<time>2026-03-26T22:51:58Z</time>
<speed>6.4</speed>
</trkpt>
<trkpt lat="35.954697" lon="139.495975">
<ele>-1.0</ele>
<time>2026-03-26T22:52:06Z</time>
<speed>6.0</speed>
</trkpt>
<trkpt lat="35.954707" lon="139.495577">
<ele>-1.0</ele>
<time>2026-03-26T22:52:12Z</time>
<speed>6.0</speed>
</trkpt>
<trkpt lat="35.954703" lon="139.495511">
<ele>-1.0</ele>
<time>2026-03-26T22:52:13Z</time>
<speed>6.5</speed>
</trkpt>
<trkpt lat="35.954702" lon="139.495148">
<ele>-1.0</ele>
<time>2026-03-26T22:52:18Z</time>
<speed>7.0</speed>
</trkpt>
<trkpt lat="35.954724" lon="139.494836">
<ele>-1.2</ele>
<time>2026-03-26T22:52:22Z</time>
<speed>6.9</speed>
</trkpt>
<trkpt lat="35.954733" lon="139.494760">
<ele>-1.4</ele>
<time>2026-03-26T22:52:23Z</time>
<speed>6.7</speed>
</trkpt>
<trkpt lat="35.954748" lon="139.494612">
<ele>-1.8</ele>
<time>2026-03-26T22:52:25Z</time>
<speed>6.3</speed>
</trkpt>
<trkpt lat="35.954783" lon="139.494337">
<ele>-3.0</ele>
<time>2026-03-26T22:52:29Z</time>
<speed>5.6</speed>
</trkpt>
<trkpt lat="35.954790" lon="139.494275">
<ele>-3.2</ele>
<time>2026-03-26T22:52:30Z</time>
<speed>5.8</speed>
</trkpt>
<trkpt lat="35.954807" lon="139.493756">
<ele>-3.4</ele>
<time>2026-03-26T22:52:38Z</time>
<speed>6.2</speed>
</trkpt>
<trkpt lat="35.954745" lon="139.493072">
<ele>-3.4</ele>
<time>2026-03-26T22:52:48Z</time>
<speed>6.3</speed>
</trkpt>
<trkpt lat="35.954732" lon="139.492933">
<ele>-3.4</ele>
<time>2026-03-26T22:52:50Z</time>
<speed>6.4</speed>
</trkpt>
<trkpt lat="35.954686" lon="139.492580">
<ele>-3.2</ele>
<time>2026-03-26T22:52:55Z</time>
<speed>6.6</speed>
</trkpt>
<trkpt lat="35.954613" lon="139.491852">
<ele>-3.2</ele>
<time>2026-03-26T22:53:05Z</time>
<speed>6.3</speed>
</trkpt>
<trkpt lat="35.954538" lon="139.491155">
<ele>-3.2</ele>
<time>2026-03-26T22:53:15Z</time>
<speed>6.2</speed>
</trkpt>
<trkpt lat="35.954527" lon="139.490603">
<ele>-3.2</ele>
<time>2026-03-26T22:53:23Z</time>
<speed>6.2</speed>
</trkpt>
<trkpt lat="35.954539" lon="139.490398">
<ele>-3.2</ele>
<time>2026-03-26T22:53:26Z</time>
<speed>6.2</speed>
</trkpt>
<trkpt lat="35.954582" lon="139.489916">
<ele>-3.2</ele>
<time>2026-03-26T22:53:33Z</time>
<speed>5.6</speed>
</trkpt>
<trkpt lat="35.954665" lon="139.489427">
<ele>-3.2</ele>
<time>2026-03-26T22:53:41Z</time>
<speed>3.7</speed>
</trkpt>
<trkpt lat="35.954707" lon="139.489186">
<ele>-2.8</ele>
<time>2026-03-26T22:53:47Z</time>
<speed>1.5</speed>
</trkpt>
<trkpt lat="35.954725" lon="139.489162">
<ele>-2.6</ele>
<time>2026-03-26T22:53:49Z</time>
<speed>2.0</speed>
</trkpt>
<trkpt lat="35.954749" lon="139.489130">
<ele>-2.2</ele>
<time>2026-03-26T22:53:51Z</time>
<speed>2.9</speed>
</trkpt>
<trkpt lat="35.954759" lon="139.489100">
<ele>-1.8</ele>
<time>2026-03-26T22:53:52Z</time>
<speed>3.8</speed>
</trkpt>
<trkpt lat="35.954769" lon="139.488974">
<ele>-1.2</ele>
<time>2026-03-26T22:53:55Z</time>
<speed>4.1</speed>
</trkpt>
<trkpt lat="35.954769" lon="139.488928">
<ele>-1.2</ele>
<time>2026-03-26T22:53:56Z</time>
<speed>3.8</speed>
</trkpt>
<trkpt lat="35.954795" lon="139.488589">
<ele>-1.0</ele>
<time>2026-03-26T22:54:04Z</time>
<speed>5.3</speed>
</trkpt>
<trkpt lat="35.954807" lon="139.488236">
<ele>-1.0</ele>
<time>2026-03-26T22:54:10Z</time>
<speed>6.7</speed>
</trkpt>
<trkpt lat="35.954801" lon="139.487789">
<ele>-1.8</ele>
<time>2026-03-26T22:54:16Z</time>
<speed>5.8</speed>
</trkpt>
<trkpt lat="35.954805" lon="139.487597">
<ele>-2.4</ele>
<time>2026-03-26T22:54:19Z</time>
<speed>5.3</speed>
</trkpt>
<trkpt lat="35.954798" lon="139.487480">
<ele>-3.0</ele>
<time>2026-03-26T22:54:21Z</time>
<speed>5.0</speed>
</trkpt>
<trkpt lat="35.954796" lon="139.487258">
<ele>-3.2</ele>
<time>2026-03-26T22:54:25Z</time>
<speed>5.1</speed>
</trkpt>
<trkpt lat="35.954780" lon="139.487030">
<ele>-3.2</ele>
<time>2026-03-26T22:54:29Z</time>
<speed>4.8</speed>
</trkpt>
<trkpt lat="35.954774" lon="139.486712">
<ele>-1.8</ele>
<time>2026-03-26T22:54:35Z</time>
<speed>5.1</speed>
</trkpt>
<trkpt lat="35.954768" lon="139.486656">
<ele>-1.6</ele>
<time>2026-03-26T22:54:36Z</time>
<speed>5.4</speed>
</trkpt>
<trkpt lat="35.954746" lon="139.486539">
<ele>-1.2</ele>
<time>2026-03-26T22:54:38Z</time>
<speed>6.0</speed>
</trkpt>
<trkpt lat="35.954710" lon="139.486344">
<ele>-0.8</ele>
<time>2026-03-26T22:54:41Z</time>
<speed>6.6</speed>
</trkpt>
<trkpt lat="35.954654" lon="139.486061">
<ele>-0.8</ele>
<time>2026-03-26T22:54:45Z</time>
<speed>6.3</speed>
</trkpt>
<trkpt lat="35.954602" lon="139.485719">
<ele>-1.0</ele>
<time>2026-03-26T22:54:50Z</time>
<speed>4.6</speed>
</trkpt>
<trkpt lat="35.954561" lon="139.485469">
<ele>-1.2</ele>
<time>2026-03-26T22:54:55Z</time>
<speed>5.1</speed>
</trkpt>
<trkpt lat="35.954530" lon="139.485305">
<ele>-1.2</ele>
<time>2026-03-26T22:54:58Z</time>
<speed>5.0</speed>
</trkpt>
<trkpt lat="35.954502" lon="139.485143">
<ele>-0.8</ele>
<time>2026-03-26T22:55:01Z</time>
<speed>5.0</speed>
</trkpt>
<trkpt lat="35.954387" lon="139.484781">
<ele>-0.6</ele>
<time>2026-03-26T22:55:08Z</time>
<speed>5.5</speed>
</trkpt>
<trkpt lat="35.954295" lon="139.484435">
<ele>-0.6</ele>
<time>2026-03-26T22:55:14Z</time>
<speed>5.6</speed>
</trkpt>
<trkpt lat="35.954152" lon="139.483900">
<ele>-0.4</ele>
<time>2026-03-26T22:55:23Z</time>
<speed>6.0</speed>
</trkpt>
<trkpt lat="35.954112" lon="139.483437">
<ele>-0.4</ele>
<time>2026-03-26T22:55:30Z</time>
<speed>6.0</speed>
</trkpt>
<trkpt lat="35.954175" lon="139.482838">
<ele>-0.4</ele>
<time>2026-03-26T22:55:39Z</time>
<speed>6.2</speed>
</trkpt>
<trkpt lat="35.954310" lon="139.482387">
<ele>-0.2</ele>
<time>2026-03-26T22:55:46Z</time>
<speed>6.2</speed>
</trkpt>
<trkpt lat="35.954529" lon="139.481751">
<ele>-0.2</ele>
<time>2026-03-26T22:55:56Z</time>
<speed>6.1</speed>
</trkpt>
<trkpt lat="35.954696" lon="139.481177">
<ele>-0.2</ele>
<time>2026-03-26T22:56:05Z</time>
<speed>7.9</speed>
</trkpt>
<trkpt lat="35.954740" lon="139.480830">
<ele>-0.2</ele>
<time>2026-03-26T22:56:09Z</time>
<speed>6.9</speed>
</trkpt>
<trkpt lat="35.954828" lon="139.480462">
<ele>-0.6</ele>
<time>2026-03-26T22:56:14Z</time>
<speed>6.2</speed>
</trkpt>
<trkpt lat="35.954872" lon="139.480262">
<ele>-1.8</ele>
<time>2026-03-26T22:56:17Z</time>
<speed>5.4</speed>
</trkpt>
<trkpt lat="35.954882" lon="139.480081">
<ele>-2.0</ele>
<time>2026-03-26T22:56:20Z</time>
<speed>4.9</speed>
</trkpt>
<trkpt lat="35.954855" lon="139.479921">
<ele>-2.2</ele>
<time>2026-03-26T22:56:23Z</time>
<speed>5.1</speed>
</trkpt>
<trkpt lat="35.954870" lon="139.479867">
<ele>-2.2</ele>
<time>2026-03-26T22:56:24Z</time>
<speed>5.6</speed>
</trkpt>
<trkpt lat="35.954930" lon="139.479631">
<ele>-2.2</ele>
<time>2026-03-26T22:56:28Z</time>
<speed>5.8</speed>
</trkpt>
<trkpt lat="35.954934" lon="139.479567">
<ele>-2.2</ele>
<time>2026-03-26T22:56:29Z</time>
<speed>6.0</speed>
</trkpt>
<trkpt lat="35.954976" lon="139.479037">
<ele>-2.0</ele>
<time>2026-03-26T22:56:37Z</time>
<speed>6.3</speed>
</trkpt>
<trkpt lat="35.954985" lon="139.478968">
<ele>-2.0</ele>
<time>2026-03-26T22:56:38Z</time>
<speed>6.4</speed>
</trkpt>
<trkpt lat="35.955088" lon="139.478341">
<ele>-2.2</ele>
<time>2026-03-26T22:56:47Z</time>
<speed>6.3</speed>
</trkpt>
<trkpt lat="35.955223" lon="139.477731">
<ele>-2.2</ele>
<time>2026-03-26T22:56:56Z</time>
<speed>6.3</speed>
</trkpt>
<trkpt lat="35.955396" lon="139.477209">
<ele>-2.2</ele>
<time>2026-03-26T22:57:04Z</time>
<speed>6.5</speed>
</trkpt>
<trkpt lat="35.955625" lon="139.476549">
<ele>-2.0</ele>
<time>2026-03-26T22:57:14Z</time>
<speed>5.5</speed>
</trkpt>
<trkpt lat="35.955758" lon="139.476220">
<ele>-2.0</ele>
<time>2026-03-26T22:57:20Z</time>
<speed>3.9</speed>
</trkpt>
<trkpt lat="35.955866" lon="139.476048">
<ele>-2.0</ele>
<time>2026-03-26T22:57:25Z</time>
<speed>2.4</speed>
</trkpt>
<trkpt lat="35.955888" lon="139.476048">
<ele>-1.8</ele>
<time>2026-03-26T22:57:26Z</time>
<speed>2.4</speed>
</trkpt>
<trkpt lat="35.955900" lon="139.476100">
<ele>-1.4</ele>
<time>2026-03-26T22:57:28Z</time>
<speed>3.9</speed>
</trkpt>
<trkpt lat="35.955881" lon="139.476184">
<ele>-0.8</ele>
<time>2026-03-26T22:57:30Z</time>
<speed>4.8</speed>
</trkpt>
<trkpt lat="35.955870" lon="139.476235">
<ele>-0.8</ele>
<time>2026-03-26T22:57:31Z</time>
<speed>5.3</speed>
</trkpt>
<trkpt lat="35.955859" lon="139.476292">
<ele>-0.8</ele>
<time>2026-03-26T22:57:32Z</time>
<speed>4.3</speed>
</trkpt>
<trkpt lat="35.955814" lon="139.476570">
<ele>-0.8</ele>
<time>2026-03-26T22:57:38Z</time>
<speed>2.2</speed>
</trkpt>
<trkpt lat="35.955856" lon="139.476520">
<ele>-1.2</ele>
<time>2026-03-26T22:57:41Z</time>
<speed>4.2</speed>
</trkpt>
<trkpt lat="35.955883" lon="139.476432">
<ele>-2.2</ele>
<time>2026-03-26T22:57:43Z</time>
<speed>4.9</speed>
</trkpt>
<trkpt lat="35.955901" lon="139.476382">
<ele>-2.6</ele>
<time>2026-03-26T22:57:44Z</time>
<speed>5.1</speed>
</trkpt>
<trkpt lat="35.955938" lon="139.476278">
<ele>-3.8</ele>
<time>2026-03-26T22:57:46Z</time>
<speed>5.3</speed>
</trkpt>
<trkpt lat="35.956053" lon="139.475829">
<ele>-4.6</ele>
<time>2026-03-26T22:57:54Z</time>
<speed>5.5</speed>
</trkpt>
<trkpt lat="35.956194" lon="139.475312">
<ele>-4.4</ele>
<time>2026-03-26T22:58:03Z</time>
<speed>5.3</speed>
</trkpt>
<trkpt lat="35.956282" lon="139.474913">
<ele>-4.2</ele>
<time>2026-03-26T22:58:10Z</time>
<speed>5.7</speed>
</trkpt>
<trkpt lat="35.956387" lon="139.474232">
<ele>-4.2</ele>
<time>2026-03-26T22:58:21Z</time>
<speed>5.8</speed>
</trkpt>
<trkpt lat="35.956395" lon="139.474168">
<ele>-4.2</ele>
<time>2026-03-26T22:58:22Z</time>
<speed>5.6</speed>
</trkpt>
<trkpt lat="35.956433" lon="139.473672">
<ele>-4.2</ele>
<time>2026-03-26T22:58:30Z</time>
<speed>5.3</speed>
</trkpt>
<trkpt lat="35.956457" lon="139.473322">
<ele>-4.0</ele>
<time>2026-03-26T22:58:36Z</time>
<speed>4.9</speed>
</trkpt>
<trkpt lat="35.956457" lon="139.473268">
<ele>-4.0</ele>
<time>2026-03-26T22:58:37Z</time>
<speed>4.8</speed>
</trkpt>
<trkpt lat="35.956434" lon="139.473109">
<ele>-4.0</ele>
<time>2026-03-26T22:58:40Z</time>
<speed>6.1</speed>
</trkpt>
<trkpt lat="35.956408" lon="139.472977">
<ele>-4.0</ele>
<time>2026-03-26T22:58:42Z</time>
<speed>5.5</speed>
</trkpt>
<trkpt lat="35.956287" lon="139.472444">
<ele>-3.6</ele>
<time>2026-03-26T22:58:51Z</time>
<speed>3.6</speed>
</trkpt>
<trkpt lat="35.956224" lon="139.472305">
<ele>-3.6</ele>
<time>2026-03-26T22:58:55Z</time>
<speed>2.8</speed>
</trkpt>
<trkpt lat="35.956202" lon="139.472361">
<ele>-3.6</ele>
<time>2026-03-26T22:58:57Z</time>
<speed>3.5</speed>
</trkpt>
<trkpt lat="35.956231" lon="139.472511">
<ele>-3.6</ele>
<time>2026-03-26T22:59:01Z</time>
<speed>3.5</speed>
</trkpt>
<trkpt lat="35.956262" lon="139.472701">
<ele>-3.2</ele>
<time>2026-03-26T22:59:06Z</time>
<speed>2.9</speed>
</trkpt>
<trkpt lat="35.956258" lon="139.472765">
<ele>-2.6</ele>
<time>2026-03-26T22:59:08Z</time>
<speed>2.5</speed>
</trkpt>
<trkpt lat="35.956238" lon="139.472777">
<ele>-2.4</ele>
<time>2026-03-26T22:59:09Z</time>
<speed>2.9</speed>
</trkpt>
<trkpt lat="35.956208" lon="139.472723">
<ele>-2.0</ele>
<time>2026-03-26T22:59:11Z</time>
<speed>3.7</speed>
</trkpt>
<trkpt lat="35.956200" lon="139.472683">
<ele>-1.6</ele>
<time>2026-03-26T22:59:12Z</time>
<speed>4.3</speed>
</trkpt>
<trkpt lat="35.956166" lon="139.472545">
<ele>-0.8</ele>
<time>2026-03-26T22:59:15Z</time>
<speed>4.8</speed>
</trkpt>
<trkpt lat="35.956152" lon="139.472495">
<ele>-0.6</ele>
<time>2026-03-26T22:59:16Z</time>
<speed>4.8</speed>
</trkpt>
<trkpt lat="35.956059" lon="139.472193">
<ele>0.2</ele>
<time>2026-03-26T22:59:22Z</time>
<speed>5.6</speed>
</trkpt>
<trkpt lat="35.955862" lon="139.471685">
<ele>0.2</ele>
<time>2026-03-26T22:59:31Z</time>
<speed>5.7</speed>
</trkpt>
<trkpt lat="35.955636" lon="139.471189">
<ele>0.2</ele>
<time>2026-03-26T22:59:40Z</time>
<speed>5.8</speed>
</trkpt>
<trkpt lat="35.955409" lon="139.470756">
<ele>0.0</ele>
<time>2026-03-26T22:59:48Z</time>
<speed>5.9</speed>
</trkpt>
<trkpt lat="35.955068" lon="139.470250">
<ele>0.2</ele>
<time>2026-03-26T22:59:58Z</time>
<speed>6.2</speed>
</trkpt>
<trkpt lat="35.954744" lon="139.469867">
<ele>0.0</ele>
<time>2026-03-26T23:00:06Z</time>
<speed>6.3</speed>
</trkpt>
<trkpt lat="35.954373" lon="139.469547">
<ele>0.0</ele>
<time>2026-03-26T23:00:14Z</time>
<speed>6.3</speed>
</trkpt>
<trkpt lat="35.953961" lon="139.469313">
<ele>0.2</ele>
<time>2026-03-26T23:00:22Z</time>
<speed>6.0</speed>
</trkpt>
<trkpt lat="35.953592" lon="139.469216">
<ele>0.2</ele>
<time>2026-03-26T23:00:29Z</time>
<speed>6.2</speed>
</trkpt>
<trkpt lat="35.953089" lon="139.469207">
<ele>0.4</ele>
<time>2026-03-26T23:00:38Z</time>
<speed>6.1</speed>
</trkpt>
<trkpt lat="35.952816" lon="139.469258">
<ele>0.4</ele>
<time>2026-03-26T23:00:43Z</time>
<speed>6.2</speed>
</trkpt>
<trkpt lat="35.952707" lon="139.469285">
<ele>0.4</ele>
<time>2026-03-26T23:00:45Z</time>
<speed>6.3</speed>
</trkpt>
<trkpt lat="35.952161" lon="139.469470">
<ele>0.8</ele>
<time>2026-03-26T23:00:55Z</time>
<speed>6.5</speed>
</trkpt>
<trkpt lat="35.951590" lon="139.469613">
<ele>1.0</ele>
<time>2026-03-26T23:01:05Z</time>
<speed>6.6</speed>
</trkpt>
<trkpt lat="35.951235" lon="139.469579">
<ele>1.0</ele>
<time>2026-03-26T23:01:11Z</time>
<speed>6.5</speed>
</trkpt>
<trkpt lat="35.950843" lon="139.469440">
<ele>1.0</ele>
<time>2026-03-26T23:01:18Z</time>
<speed>6.0</speed>
</trkpt>
<trkpt lat="35.950451" lon="139.469211">
<ele>1.0</ele>
<time>2026-03-26T23:01:26Z</time>
<speed>6.0</speed>
</trkpt>
<trkpt lat="35.950059" lon="139.468987">
<ele>1.2</ele>
<time>2026-03-26T23:01:34Z</time>
<speed>6.3</speed>
</trkpt>
<trkpt lat="35.949732" lon="139.468873">
<ele>1.4</ele>
<time>2026-03-26T23:01:40Z</time>
<speed>6.5</speed>
</trkpt>
<trkpt lat="35.949618" lon="139.468843">
<ele>1.4</ele>
<time>2026-03-26T23:01:42Z</time>
<speed>6.5</speed>
</trkpt>
<trkpt lat="35.949268" lon="139.468852">
<ele>1.6</ele>
<time>2026-03-26T23:01:48Z</time>
<speed>6.5</speed>
</trkpt>
<trkpt lat="35.949211" lon="139.468870">
<ele>1.6</ele>
<time>2026-03-26T23:01:49Z</time>
<speed>6.6</speed>
</trkpt>
<trkpt lat="35.948986" lon="139.468962">
<ele>1.6</ele>
<time>2026-03-26T23:01:53Z</time>
<speed>6.6</speed>
</trkpt>
<trkpt lat="35.948424" lon="139.469194">
<ele>1.4</ele>
<time>2026-03-26T23:02:03Z</time>
<speed>6.3</speed>
</trkpt>
<trkpt lat="35.948369" lon="139.469212">
<ele>1.4</ele>
<time>2026-03-26T23:02:04Z</time>
<speed>6.5</speed>
</trkpt>
<trkpt lat="35.948139" lon="139.469271">
<ele>1.4</ele>
<time>2026-03-26T23:02:08Z</time>
<speed>6.8</speed>
</trkpt>
<trkpt lat="35.947900" lon="139.469326">
<ele>1.4</ele>
<time>2026-03-26T23:02:12Z</time>
<speed>6.7</speed>
</trkpt>
<trkpt lat="35.947424" lon="139.469395">
<ele>1.4</ele>
<time>2026-03-26T23:02:20Z</time>
<speed>6.7</speed>
</trkpt>
<trkpt lat="35.946882" lon="139.469396">
<ele>1.4</ele>
<time>2026-03-26T23:02:29Z</time>
<speed>6.9</speed>
</trkpt>
<trkpt lat="35.946329" lon="139.469332">
<ele>1.6</ele>
<time>2026-03-26T23:02:38Z</time>
<speed>6.8</speed>
</trkpt>
<trkpt lat="35.946208" lon="139.469313">
<ele>1.6</ele>
<time>2026-03-26T23:02:40Z</time>
<speed>6.6</speed>
</trkpt>
<trkpt lat="35.945616" lon="139.469220">
<ele>1.6</ele>
<time>2026-03-26T23:02:50Z</time>
<speed>6.6</speed>
</trkpt>
<trkpt lat="35.945557" lon="139.469208">
<ele>1.6</ele>
<time>2026-03-26T23:02:51Z</time>
<speed>6.7</speed>
</trkpt>
<trkpt lat="35.945025" lon="139.469075">
<ele>1.6</ele>
<time>2026-03-26T23:03:00Z</time>
<speed>6.6</speed>
</trkpt>
<trkpt lat="35.944456" lon="139.468874">
<ele>1.6</ele>
<time>2026-03-26T23:03:10Z</time>
<speed>6.7</speed>
</trkpt>
<trkpt lat="35.943931" lon="139.468704">
<ele>1.8</ele>
<time>2026-03-26T23:03:19Z</time>
<speed>6.7</speed>
</trkpt>
<trkpt lat="35.943755" lon="139.468656">
<ele>1.8</ele>
<time>2026-03-26T23:03:22Z</time>
<speed>6.7</speed>
</trkpt>
<trkpt lat="35.943219" lon="139.468552">
<ele>1.8</ele>
<time>2026-03-26T23:03:31Z</time>
<speed>6.6</speed>
</trkpt>
<trkpt lat="35.943101" lon="139.468528">
<ele>1.8</ele>
<time>2026-03-26T23:03:33Z</time>
<speed>6.3</speed>
</trkpt>
<trkpt lat="35.942594" lon="139.468435">
<ele>1.8</ele>
<time>2026-03-26T23:03:42Z</time>
<speed>5.8</speed>
</trkpt>
<trkpt lat="35.942179" lon="139.468360">
<ele>2.0</ele>
<time>2026-03-26T23:03:50Z</time>
<speed>3.5</speed>
</trkpt>
<trkpt lat="35.942025" lon="139.468309">
<ele>2.0</ele>
<time>2026-03-26T23:03:55Z</time>
<speed>1.7</speed>
</trkpt>
<trkpt lat="35.942026" lon="139.468290">
<ele>2.0</ele>
<time>2026-03-26T23:03:56Z</time>
<speed>2.9</speed>
</trkpt>
<trkpt lat="35.942075" lon="139.468271">
<ele>2.0</ele>
<time>2026-03-26T23:03:58Z</time>
<speed>4.1</speed>
</trkpt>
<trkpt lat="35.942186" lon="139.468284">
<ele>2.0</ele>
<time>2026-03-26T23:04:01Z</time>
<speed>4.7</speed>
</trkpt>
<trkpt lat="35.942271" lon="139.468292">
<ele>2.0</ele>
<time>2026-03-26T23:04:03Z</time>
<speed>5.6</speed>
</trkpt>
<trkpt lat="35.942473" lon="139.468313">
<ele>1.8</ele>
<time>2026-03-26T23:04:07Z</time>
<speed>6.5</speed>
</trkpt>
<trkpt lat="35.942648" lon="139.468324">
<ele>1.4</ele>
<time>2026-03-26T23:04:10Z</time>
<speed>6.0</speed>
</trkpt>
<trkpt lat="35.942862" lon="139.468340">
<ele>0.4</ele>
<time>2026-03-26T23:04:14Z</time>
<speed>3.5</speed>
</trkpt>
<trkpt lat="35.942893" lon="139.468344">
<ele>0.0</ele>
<time>2026-03-26T23:04:15Z</time>
<speed>2.3</speed>
</trkpt>
<trkpt lat="35.942928" lon="139.468318">
<ele>-0.6</ele>
<time>2026-03-26T23:04:17Z</time>
<speed>2.3</speed>
</trkpt>
<trkpt lat="35.942921" lon="139.468294">
<ele>-0.8</ele>
<time>2026-03-26T23:04:18Z</time>
<speed>3.3</speed>
</trkpt>
<trkpt lat="35.942833" lon="139.468281">
<ele>-1.8</ele>
<time>2026-03-26T23:04:21Z</time>
<speed>4.8</speed>
</trkpt>
<trkpt lat="35.942791" lon="139.468271">
<ele>-1.8</ele>
<time>2026-03-26T23:04:22Z</time>
<speed>5.1</speed>
</trkpt>
<trkpt lat="35.942746" lon="139.468261">
<ele>-2.0</ele>
<time>2026-03-26T23:04:23Z</time>
<speed>5.2</speed>
</trkpt>
<trkpt lat="35.942653" lon="139.468259">
<ele>-2.0</ele>
<time>2026-03-26T23:04:25Z</time>
<speed>5.8</speed>
</trkpt>
<trkpt lat="35.942601" lon="139.468254">
<ele>-2.0</ele>
<time>2026-03-26T23:04:26Z</time>
<speed>5.6</speed>
</trkpt>
<trkpt lat="35.942248" lon="139.468205">
<ele>-2.0</ele>
<time>2026-03-26T23:04:33Z</time>
<speed>5.7</speed>
</trkpt>
<trkpt lat="35.941888" lon="139.468160">
<ele>-2.0</ele>
<time>2026-03-26T23:04:40Z</time>
<speed>5.8</speed>
</trkpt>
<trkpt lat="35.941784" lon="139.468160">
<ele>-1.8</ele>
<time>2026-03-26T23:04:42Z</time>
<speed>6.0</speed>
</trkpt>
<trkpt lat="35.941465" lon="139.468105">
<ele>-1.6</ele>
<time>2026-03-26T23:04:48Z</time>
<speed>5.8</speed>
</trkpt>
<trkpt lat="35.941155" lon="139.468054">
<ele>-1.4</ele>
<time>2026-03-26T23:04:54Z</time>
<speed>5.9</speed>
</trkpt>
<trkpt lat="35.940731" lon="139.468000">
<ele>-1.0</ele>
<time>2026-03-26T23:05:02Z</time>
<speed>5.1</speed>
</trkpt>
<trkpt lat="35.940457" lon="139.467966">
<ele>-0.8</ele>
<time>2026-03-26T23:05:08Z</time>
<speed>4.9</speed>
</trkpt>
<trkpt lat="35.940369" lon="139.467951">
<ele>-0.4</ele>
<time>2026-03-26T23:05:10Z</time>
<speed>5.2</speed>
</trkpt>
<trkpt lat="35.940230" lon="139.467927">
<ele>0.2</ele>
<time>2026-03-26T23:05:13Z</time>
<speed>4.9</speed>
</trkpt>
<trkpt lat="35.940186" lon="139.467928">
<ele>0.6</ele>
<time>2026-03-26T23:05:14Z</time>
<speed>5.3</speed>
</trkpt>
<trkpt lat="35.940044" lon="139.467929">
<ele>1.2</ele>
<time>2026-03-26T23:05:17Z</time>
<speed>5.7</speed>
</trkpt>
<trkpt lat="35.939995" lon="139.467911">
<ele>1.4</ele>
<time>2026-03-26T23:05:18Z</time>
<speed>5.3</speed>
</trkpt>
<trkpt lat="35.939817" lon="139.467830">
<ele>2.2</ele>
<time>2026-03-26T23:05:22Z</time>
<speed>5.1</speed>
</trkpt>
<trkpt lat="35.939773" lon="139.467813">
<ele>2.6</ele>
<time>2026-03-26T23:05:23Z</time>
<speed>5.3</speed>
</trkpt>
<trkpt lat="35.939516" lon="139.467659">
<ele>3.0</ele>
<time>2026-03-26T23:05:29Z</time>
<speed>5.7</speed>
</trkpt>
<trkpt lat="35.939163" lon="139.467393">
<ele>3.0</ele>
<time>2026-03-26T23:05:37Z</time>
<speed>5.9</speed>
</trkpt>
<trkpt lat="35.938781" lon="139.467040">
<ele>3.0</ele>
<time>2026-03-26T23:05:46Z</time>
<speed>6.2</speed>
</trkpt>
<trkpt lat="35.938347" lon="139.466616">
<ele>3.0</ele>
<time>2026-03-26T23:05:56Z</time>
<speed>6.4</speed>
</trkpt>
<trkpt lat="35.938255" lon="139.466529">
<ele>3.2</ele>
<time>2026-03-26T23:05:58Z</time>
<speed>6.3</speed>
</trkpt>
<trkpt lat="35.937799" lon="139.466123">
<ele>3.2</ele>
<time>2026-03-26T23:06:08Z</time>
<speed>6.2</speed>
</trkpt>
<trkpt lat="35.937753" lon="139.466084">
<ele>3.2</ele>
<time>2026-03-26T23:06:09Z</time>
<speed>6.2</speed>
</trkpt>
<trkpt lat="35.937279" lon="139.465731">
<ele>3.6</ele>
<time>2026-03-26T23:06:19Z</time>
<speed>6.2</speed>
</trkpt>
<trkpt lat="35.937181" lon="139.465667">
<ele>3.6</ele>
<time>2026-03-26T23:06:21Z</time>
<speed>6.4</speed>
</trkpt>
<trkpt lat="35.936811" lon="139.465464">
<ele>3.6</ele>
<time>2026-03-26T23:06:28Z</time>
<speed>6.3</speed>
</trkpt>
<trkpt lat="35.936271" lon="139.465238">
<ele>3.8</ele>
<time>2026-03-26T23:06:38Z</time>
<speed>6.5</speed>
</trkpt>
<trkpt lat="35.935824" lon="139.465078">
<ele>3.8</ele>
<time>2026-03-26T23:06:46Z</time>
<speed>6.4</speed>
</trkpt>
<trkpt lat="35.935270" lon="139.464866">
<ele>3.8</ele>
<time>2026-03-26T23:06:56Z</time>
<speed>6.4</speed>
</trkpt>
<trkpt lat="35.935215" lon="139.464844">
<ele>3.8</ele>
<time>2026-03-26T23:06:57Z</time>
<speed>6.4</speed>
</trkpt>
<trkpt lat="35.934831" lon="139.464692">
<ele>4.0</ele>
<time>2026-03-26T23:07:04Z</time>
<speed>6.1</speed>
</trkpt>
<trkpt lat="35.934368" lon="139.464491">
<ele>4.2</ele>
<time>2026-03-26T23:07:13Z</time>
<speed>6.3</speed>
</trkpt>
<trkpt lat="35.933950" lon="139.464286">
<ele>4.2</ele>
<time>2026-03-26T23:07:21Z</time>
<speed>6.3</speed>
</trkpt>
<trkpt lat="35.933431" lon="139.463999">
<ele>4.2</ele>
<time>2026-03-26T23:07:31Z</time>
<speed>6.4</speed>
</trkpt>
<trkpt lat="35.932982" lon="139.463671">
<ele>4.4</ele>
<time>2026-03-26T23:07:40Z</time>
<speed>5.9</speed>
</trkpt>
<trkpt lat="35.932689" lon="139.463390">
<ele>4.4</ele>
<time>2026-03-26T23:07:47Z</time>
<speed>6.0</speed>
</trkpt>
<trkpt lat="35.932328" lon="139.462983">
<ele>4.4</ele>
<time>2026-03-26T23:07:56Z</time>
<speed>5.6</speed>
</trkpt>
<trkpt lat="35.932255" lon="139.462898">
<ele>4.4</ele>
<time>2026-03-26T23:07:58Z</time>
<speed>5.2</speed>
</trkpt>
<trkpt lat="35.932126" lon="139.462730">
<ele>4.6</ele>
<time>2026-03-26T23:08:02Z</time>
<speed>5.0</speed>
</trkpt>
<trkpt lat="35.932097" lon="139.462687">
<ele>4.6</ele>
<time>2026-03-26T23:08:03Z</time>
<speed>4.4</speed>
</trkpt>
<trkpt lat="35.931933" lon="139.462476">
<ele>4.8</ele>
<time>2026-03-26T23:08:09Z</time>
<speed>2.3</speed>
</trkpt>
<trkpt lat="35.931868" lon="139.462376">
<ele>5.2</ele>
<time>2026-03-26T23:08:14Z</time>
<speed>0.7</speed>
</trkpt>
<trkpt lat="35.931856" lon="139.462343">
<ele>5.4</ele>
<time>2026-03-26T23:08:19Z</time>
<speed>2.8</speed>
</trkpt>
<trkpt lat="35.931838" lon="139.462321">
<ele>5.6</ele>
<time>2026-03-26T23:08:20Z</time>
<speed>4.3</speed>
</trkpt>
<trkpt lat="35.931713" lon="139.462205">
<ele>5.6</ele>
<time>2026-03-26T23:08:24Z</time>
<speed>4.8</speed>
</trkpt>
<trkpt lat="35.931475" lon="139.461890">
<ele>5.6</ele>
<time>2026-03-26T23:08:32Z</time>
<speed>5.6</speed>
</trkpt>
<trkpt lat="35.931276" lon="139.461608">
<ele>5.2</ele>
<time>2026-03-26T23:08:38Z</time>
<speed>6.2</speed>
</trkpt>
<trkpt lat="35.931151" lon="139.461378">
<ele>5.0</ele>
<time>2026-03-26T23:08:42Z</time>
<speed>6.9</speed>
</trkpt>
<trkpt lat="35.931007" lon="139.461128">
<ele>4.4</ele>
<time>2026-03-26T23:08:46Z</time>
<speed>7.1</speed>
</trkpt>
<trkpt lat="35.930844" lon="139.460791">
<ele>3.6</ele>
<time>2026-03-26T23:08:51Z</time>
<speed>6.5</speed>
</trkpt>
<trkpt lat="35.930785" lon="139.460667">
<ele>3.2</ele>
<time>2026-03-26T23:08:53Z</time>
<speed>5.8</speed>
</trkpt>
<trkpt lat="35.930706" lon="139.460502">
<ele>2.4</ele>
<time>2026-03-26T23:08:56Z</time>
<speed>6.1</speed>
</trkpt>
<trkpt lat="35.930632" lon="139.460322">
<ele>2.4</ele>
<time>2026-03-26T23:08:59Z</time>
<speed>5.6</speed>
</trkpt>
<trkpt lat="35.930536" lon="139.460032">
<ele>2.4</ele>
<time>2026-03-26T23:09:04Z</time>
<speed>4.8</speed>
</trkpt>
<trkpt lat="35.930509" lon="139.459930">
<ele>2.4</ele>
<time>2026-03-26T23:09:06Z</time>
<speed>4.7</speed>
</trkpt>
<trkpt lat="35.930438" lon="139.459740">
<ele>2.8</ele>
<time>2026-03-26T23:09:10Z</time>
<speed>5.4</speed>
</trkpt>
<trkpt lat="35.930397" lon="139.459632">
<ele>3.4</ele>
<time>2026-03-26T23:09:12Z</time>
<speed>5.6</speed>
</trkpt>
<trkpt lat="35.930376" lon="139.459575">
<ele>3.6</ele>
<time>2026-03-26T23:09:13Z</time>
<speed>5.4</speed>
</trkpt>
<trkpt lat="35.930291" lon="139.459293">
<ele>4.8</ele>
<time>2026-03-26T23:09:18Z</time>
<speed>5.7</speed>
</trkpt>
<trkpt lat="35.930261" lon="139.459171">
<ele>4.8</ele>
<time>2026-03-26T23:09:20Z</time>
<speed>5.8</speed>
</trkpt>
<trkpt lat="35.930129" lon="139.458548">
<ele>5.0</ele>
<time>2026-03-26T23:09:30Z</time>
<speed>5.7</speed>
</trkpt>
<trkpt lat="35.930064" lon="139.458179">
<ele>5.0</ele>
<time>2026-03-26T23:09:36Z</time>
<speed>5.9</speed>
</trkpt>
<trkpt lat="35.929873" lon="139.457572">
<ele>5.2</ele>
<time>2026-03-26T23:09:46Z</time>
<speed>6.1</speed>
</trkpt>
<trkpt lat="35.929603" lon="139.456986">
<ele>5.4</ele>
<time>2026-03-26T23:09:56Z</time>
<speed>6.1</speed>
</trkpt>
<trkpt lat="35.929313" lon="139.456494">
<ele>5.4</ele>
<time>2026-03-26T23:10:05Z</time>
<speed>5.5</speed>
</trkpt>
<trkpt lat="35.929041" lon="139.456142">
<ele>5.6</ele>
<time>2026-03-26T23:10:13Z</time>
<speed>7.2</speed>
</trkpt>
<trkpt lat="35.928790" lon="139.455888">
<ele>5.6</ele>
<time>2026-03-26T23:10:18Z</time>
<speed>7.4</speed>
</trkpt>
<trkpt lat="35.928626" lon="139.455749">
<ele>5.4</ele>
<time>2026-03-26T23:10:21Z</time>
<speed>7.2</speed>
</trkpt>
<trkpt lat="35.928496" lon="139.455746">
<ele>4.8</ele>
<time>2026-03-26T23:10:23Z</time>
<speed>6.5</speed>
</trkpt>
<trkpt lat="35.928380" lon="139.455730">
<ele>4.2</ele>
<time>2026-03-26T23:10:25Z</time>
<speed>7.6</speed>
</trkpt>
<trkpt lat="35.928257" lon="139.455654">
<ele>3.6</ele>
<time>2026-03-26T23:10:27Z</time>
<speed>5.8</speed>
</trkpt>
<trkpt lat="35.928214" lon="139.455617">
<ele>3.4</ele>
<time>2026-03-26T23:10:28Z</time>
<speed>5.2</speed>
</trkpt>
<trkpt lat="35.928153" lon="139.455530">
<ele>3.2</ele>
<time>2026-03-26T23:10:30Z</time>
<speed>4.2</speed>
</trkpt>
<trkpt lat="35.928062" lon="139.455326">
<ele>3.0</ele>
<time>2026-03-26T23:10:35Z</time>
<speed>4.3</speed>
</trkpt>
<trkpt lat="35.927975" lon="139.455231">
<ele>3.0</ele>
<time>2026-03-26T23:10:38Z</time>
<speed>4.4</speed>
</trkpt>
<trkpt lat="35.927909" lon="139.455177">
<ele>3.0</ele>
<time>2026-03-26T23:10:40Z</time>
<speed>4.5</speed>
</trkpt>
<trkpt lat="35.927718" lon="139.454991">
<ele>4.4</ele>
<time>2026-03-26T23:10:46Z</time>
<speed>4.4</speed>
</trkpt>
<trkpt lat="35.927686" lon="139.454962">
<ele>4.6</ele>
<time>2026-03-26T23:10:47Z</time>
<speed>4.0</speed>
</trkpt>
<trkpt lat="35.927551" lon="139.454903">
<ele>5.8</ele>
<time>2026-03-26T23:10:51Z</time>
<speed>2.7</speed>
</trkpt>
<trkpt lat="35.927530" lon="139.454887">
<ele>6.0</ele>
<time>2026-03-26T23:10:52Z</time>
<speed>2.2</speed>
</trkpt>
<trkpt lat="35.927525" lon="139.454863">
<ele>6.2</ele>
<time>2026-03-26T23:10:53Z</time>
<speed>3.4</speed>
</trkpt>
<trkpt lat="35.927583" lon="139.454839">
<ele>6.2</ele>
<time>2026-03-26T23:10:55Z</time>
<speed>4.1</speed>
</trkpt>
<trkpt lat="35.927653" lon="139.454865">
<ele>6.2</ele>
<time>2026-03-26T23:10:57Z</time>
<speed>5.1</speed>
</trkpt>
<trkpt lat="35.927740" lon="139.454901">
<ele>6.2</ele>
<time>2026-03-26T23:10:59Z</time>
<speed>4.5</speed>
</trkpt>
<trkpt lat="35.927984" lon="139.454933">
<ele>5.8</ele>
<time>2026-03-26T23:11:05Z</time>
<speed>3.5</speed>
</trkpt>
<trkpt lat="35.927970" lon="139.454857">
<ele>5.2</ele>
<time>2026-03-26T23:11:07Z</time>
<speed>3.8</speed>
</trkpt>
<trkpt lat="35.927908" lon="139.454821">
<ele>4.6</ele>
<time>2026-03-26T23:11:09Z</time>
<speed>4.6</speed>
</trkpt>
<trkpt lat="35.927868" lon="139.454807">
<ele>4.2</ele>
<time>2026-03-26T23:11:10Z</time>
<speed>5.1</speed>
</trkpt>
<trkpt lat="35.927825" lon="139.454788">
<ele>3.8</ele>
<time>2026-03-26T23:11:11Z</time>
<speed>4.9</speed>
</trkpt>
<trkpt lat="35.927739" lon="139.454765">
<ele>3.2</ele>
<time>2026-03-26T23:11:13Z</time>
<speed>5.2</speed>
</trkpt>
<trkpt lat="35.927603" lon="139.454725">
<ele>2.6</ele>
<time>2026-03-26T23:11:16Z</time>
<speed>5.6</speed>
</trkpt>
<trkpt lat="35.927155" lon="139.454619">
<ele>2.4</ele>
<time>2026-03-26T23:11:25Z</time>
<speed>5.9</speed>
</trkpt>
<trkpt lat="35.926682" lon="139.454510">
<ele>2.6</ele>
<time>2026-03-26T23:11:34Z</time>
<speed>6.1</speed>
</trkpt>
<trkpt lat="35.926195" lon="139.454440">
<ele>2.6</ele>
<time>2026-03-26T23:11:43Z</time>
<speed>6.0</speed>
</trkpt>
<trkpt lat="35.925821" lon="139.454402">
<ele>2.8</ele>
<time>2026-03-26T23:11:50Z</time>
<speed>6.2</speed>
</trkpt>
<trkpt lat="35.925375" lon="139.454356">
<ele>3.0</ele>
<time>2026-03-26T23:11:58Z</time>
<speed>6.3</speed>
</trkpt>
<trkpt lat="35.924865" lon="139.454330">
<ele>3.0</ele>
<time>2026-03-26T23:12:07Z</time>
<speed>6.4</speed>
</trkpt>
<trkpt lat="35.924289" lon="139.454314">
<ele>3.2</ele>
<time>2026-03-26T23:12:17Z</time>
<speed>6.4</speed>
</trkpt>
<trkpt lat="35.924232" lon="139.454308">
<ele>3.2</ele>
<time>2026-03-26T23:12:18Z</time>
<speed>6.3</speed>
</trkpt>
<trkpt lat="35.923723" lon="139.454286">
<ele>3.2</ele>
<time>2026-03-26T23:12:27Z</time>
<speed>6.3</speed>
</trkpt>
<trkpt lat="35.923271" lon="139.454251">
<ele>3.4</ele>
<time>2026-03-26T23:12:35Z</time>
<speed>5.9</speed>
</trkpt>
<trkpt lat="35.922954" lon="139.454226">
<ele>3.4</ele>
<time>2026-03-26T23:12:41Z</time>
<speed>6.2</speed>
</trkpt>
<trkpt lat="35.922732" lon="139.454245">
<ele>3.4</ele>
<time>2026-03-26T23:12:45Z</time>
<speed>6.2</speed>
</trkpt>
<trkpt lat="35.922620" lon="139.454245">
<ele>3.4</ele>
<time>2026-03-26T23:12:47Z</time>
<speed>6.4</speed>
</trkpt>
<trkpt lat="35.922101" lon="139.454219">
<ele>4.0</ele>
<time>2026-03-26T23:12:56Z</time>
<speed>6.2</speed>
</trkpt>
<trkpt lat="35.921599" lon="139.454165">
<ele>4.2</ele>
<time>2026-03-26T23:13:05Z</time>
<speed>6.3</speed>
</trkpt>
<trkpt lat="35.921145" lon="139.454123">
<ele>4.2</ele>
<time>2026-03-26T23:13:13Z</time>
<speed>6.1</speed>
</trkpt>
<trkpt lat="35.920981" lon="139.454116">
<ele>4.2</ele>
<time>2026-03-26T23:13:16Z</time>
<speed>5.9</speed>
</trkpt>
<trkpt lat="35.920769" lon="139.454098">
<ele>4.2</ele>
<time>2026-03-26T23:13:20Z</time>
<speed>6.0</speed>
</trkpt>
<trkpt lat="35.920607" lon="139.454075">
<ele>4.4</ele>
<time>2026-03-26T23:13:23Z</time>
<speed>6.1</speed>
</trkpt>
<trkpt lat="35.920281" lon="139.454033">
<ele>4.6</ele>
<time>2026-03-26T23:13:29Z</time>
<speed>5.9</speed>
</trkpt>
<trkpt lat="35.920229" lon="139.454023">
<ele>4.6</ele>
<time>2026-03-26T23:13:30Z</time>
<speed>5.9</speed>
</trkpt>
<trkpt lat="35.920072" lon="139.453990">
<ele>4.6</ele>
<time>2026-03-26T23:13:33Z</time>
<speed>6.0</speed>
</trkpt>
<trkpt lat="35.919651" lon="139.453881">
<ele>4.8</ele>
<time>2026-03-26T23:13:41Z</time>
<speed>5.2</speed>
</trkpt>
<trkpt lat="35.919381" lon="139.453783">
<ele>4.8</ele>
<time>2026-03-26T23:13:47Z</time>
<speed>5.4</speed>
</trkpt>
<trkpt lat="35.919333" lon="139.453771">
<ele>4.8</ele>
<time>2026-03-26T23:13:48Z</time>
<speed>4.6</speed>
</trkpt>
<trkpt lat="35.919007" lon="139.453685">
<ele>4.8</ele>
<time>2026-03-26T23:13:56Z</time>
<speed>3.5</speed>
</trkpt>
<trkpt lat="35.918853" lon="139.453653">
<ele>5.4</ele>
<time>2026-03-26T23:14:01Z</time>
<speed>3.1</speed>
</trkpt>
<trkpt lat="35.918797" lon="139.453650">
<ele>6.0</ele>
<time>2026-03-26T23:14:03Z</time>
<speed>2.8</speed>
</trkpt>
<trkpt lat="35.918747" lon="139.453662">
<ele>6.4</ele>
<time>2026-03-26T23:14:05Z</time>
<speed>1.4</speed>
</trkpt>
<trkpt lat="35.918698" lon="139.453661">
<ele>7.4</ele>
<time>2026-03-26T23:14:09Z</time>
<speed>0.0</speed>
</trkpt>
<trkpt lat="35.918698" lon="139.453661">
<ele>7.6</ele>
<time>2026-03-26T23:14:10Z</time>
<speed>0.1</speed>
</trkpt>
<trkpt lat="35.918637" lon="139.453641">
<ele>8.8</ele>
<time>2026-03-26T23:15:23Z</time>
<speed>2.0</speed>
</trkpt>
<trkpt lat="35.918620" lon="139.453634">
<ele>8.8</ele>
<time>2026-03-26T23:15:24Z</time>
<speed>2.8</speed>
</trkpt>
<trkpt lat="35.918478" lon="139.453579">
<ele>8.8</ele>
<time>2026-03-26T23:15:30Z</time>
<speed>2.7</speed>
</trkpt>
<trkpt lat="35.918348" lon="139.453446">
<ele>9.0</ele>
<time>2026-03-26T23:15:37Z</time>
<speed>3.4</speed>
</trkpt>
<trkpt lat="35.918428" lon="139.453244">
<ele>9.0</ele>
<time>2026-03-26T23:15:43Z</time>
<speed>4.0</speed>
</trkpt>
<trkpt lat="35.918591" lon="139.452899">
<ele>9.4</ele>
<time>2026-03-26T23:15:52Z</time>
<speed>4.4</speed>
</trkpt>
<trkpt lat="35.918778" lon="139.452528">
<ele>9.6</ele>
<time>2026-03-26T23:16:01Z</time>
<speed>4.0</speed>
</trkpt>
<trkpt lat="35.918844" lon="139.452369">
<ele>9.8</ele>
<time>2026-03-26T23:16:05Z</time>
<speed>3.7</speed>
</trkpt>
<trkpt lat="35.918893" lon="139.452261">
<ele>9.8</ele>
<time>2026-03-26T23:16:08Z</time>
<speed>4.4</speed>
</trkpt>
<trkpt lat="35.919010" lon="139.452008">
<ele>9.8</ele>
<time>2026-03-26T23:16:14Z</time>
<speed>4.9</speed>
</trkpt>
<trkpt lat="35.919034" lon="139.451962">
<ele>9.8</ele>
<time>2026-03-26T23:16:15Z</time>
<speed>4.8</speed>
</trkpt>
<trkpt lat="35.919209" lon="139.451595">
<ele>9.8</ele>
<time>2026-03-26T23:16:23Z</time>
<speed>5.0</speed>
</trkpt>
<trkpt lat="35.919363" lon="139.451260">
<ele>9.8</ele>
<time>2026-03-26T23:16:30Z</time>
<speed>4.5</speed>
</trkpt>
<trkpt lat="35.919528" lon="139.450911">
<ele>9.6</ele>
<time>2026-03-26T23:16:38Z</time>
<speed>4.7</speed>
</trkpt>
<trkpt lat="35.919702" lon="139.450556">
<ele>9.6</ele>
<time>2026-03-26T23:16:46Z</time>
<speed>4.0</speed>
</trkpt>
<trkpt lat="35.919790" lon="139.450365">
<ele>9.4</ele>
<time>2026-03-26T23:16:51Z</time>
<speed>3.0</speed>
</trkpt>
<trkpt lat="35.919803" lon="139.450336">
<ele>9.4</ele>
<time>2026-03-26T23:16:52Z</time>
<speed>1.4</speed>
</trkpt>
<trkpt lat="35.919836" lon="139.450267">
<ele>9.4</ele>
<time>2026-03-26T23:16:57Z</time>
<speed>0.2</speed>
</trkpt>
<trkpt lat="35.919859" lon="139.450196">
<ele>9.2</ele>
<time>2026-03-26T23:17:36Z</time>
<speed>2.1</speed>
</trkpt>
<trkpt lat="35.919856" lon="139.450173">
<ele>9.2</ele>
<time>2026-03-26T23:17:37Z</time>
<speed>2.7</speed>
</trkpt>
<trkpt lat="35.919769" lon="139.450123">
<ele>9.2</ele>
<time>2026-03-26T23:17:41Z</time>
<speed>2.1</speed>
</trkpt>
<trkpt lat="35.919712" lon="139.450181">
<ele>9.0</ele>
<time>2026-03-26T23:17:45Z</time>
<speed>3.3</speed>
</trkpt>
<trkpt lat="35.919700" lon="139.450215">
<ele>9.0</ele>
<time>2026-03-26T23:17:46Z</time>
<speed>4.0</speed>
</trkpt>
<trkpt lat="35.919630" lon="139.450368">
<ele>8.8</ele>
<time>2026-03-26T23:17:50Z</time>
<speed>3.6</speed>
</trkpt>
<trkpt lat="35.919614" lon="139.450403">
<ele>8.8</ele>
<time>2026-03-26T23:17:51Z</time>
<speed>1.8</speed>
</trkpt>
<trkpt lat="35.919587" lon="139.450476">
<ele>8.4</ele>
<time>2026-03-26T23:17:55Z</time>
<speed>0.5</speed>
</trkpt>
<trkpt lat="35.919560" lon="139.450511">
<ele>8.2</ele>
<time>2026-03-26T23:18:03Z</time>
<speed>3.1</speed>
</trkpt>
<trkpt lat="35.919504" lon="139.450521">
<ele>8.2</ele>
<time>2026-03-26T23:18:05Z</time>
<speed>4.5</speed>
</trkpt>
<trkpt lat="35.919424" lon="139.450533">
<ele>8.0</ele>
<time>2026-03-26T23:18:07Z</time>
<speed>5.1</speed>
</trkpt>
<trkpt lat="35.919287" lon="139.450530">
<ele>8.0</ele>
<time>2026-03-26T23:18:10Z</time>
<speed>5.5</speed>
</trkpt>
<trkpt lat="35.919121" lon="139.450394">
<ele>8.0</ele>
<time>2026-03-26T23:18:14Z</time>
<speed>6.0</speed>
</trkpt>
<trkpt lat="35.918989" lon="139.450281">
<ele>7.6</ele>
<time>2026-03-26T23:18:17Z</time>
<speed>6.2</speed>
</trkpt>
<trkpt lat="35.918802" lon="139.450131">
<ele>7.2</ele>
<time>2026-03-26T23:18:21Z</time>
<speed>6.4</speed>
</trkpt>
<trkpt lat="35.918565" lon="139.449928">
<ele>6.6</ele>
<time>2026-03-26T23:18:26Z</time>
<speed>6.4</speed>
</trkpt>
<trkpt lat="35.918469" lon="139.449850">
<ele>6.6</ele>
<time>2026-03-26T23:18:28Z</time>
<speed>6.5</speed>
</trkpt>
<trkpt lat="35.918047" lon="139.449466">
<ele>6.6</ele>
<time>2026-03-26T23:18:37Z</time>
<speed>6.5</speed>
</trkpt>
<trkpt lat="35.917687" lon="139.449096">
<ele>6.8</ele>
<time>2026-03-26T23:18:45Z</time>
<speed>6.3</speed>
</trkpt>
<trkpt lat="35.917438" lon="139.448814">
<ele>6.8</ele>
<time>2026-03-26T23:18:51Z</time>
<speed>6.7</speed>
</trkpt>
<trkpt lat="35.917045" lon="139.448351">
<ele>7.0</ele>
<time>2026-03-26T23:19:00Z</time>
<speed>6.9</speed>
</trkpt>
<trkpt lat="35.916657" lon="139.447852">
<ele>7.0</ele>
<time>2026-03-26T23:19:09Z</time>
<speed>6.8</speed>
</trkpt>
<trkpt lat="35.916572" lon="139.447742">
<ele>7.2</ele>
<time>2026-03-26T23:19:11Z</time>
<speed>6.8</speed>
</trkpt>
<trkpt lat="35.916202" lon="139.447245">
<ele>7.2</ele>
<time>2026-03-26T23:19:20Z</time>
<speed>6.8</speed>
</trkpt>
<trkpt lat="35.915837" lon="139.446742">
<ele>7.4</ele>
<time>2026-03-26T23:19:29Z</time>
<speed>6.5</speed>
</trkpt>
<trkpt lat="35.915578" lon="139.446352">
<ele>7.6</ele>
<time>2026-03-26T23:19:36Z</time>
<speed>5.5</speed>
</trkpt>
<trkpt lat="35.915546" lon="139.446305">
<ele>7.6</ele>
<time>2026-03-26T23:19:37Z</time>
<speed>6.0</speed>
</trkpt>
<trkpt lat="35.915279" lon="139.445889">
<ele>8.4</ele>
<time>2026-03-26T23:19:45Z</time>
<speed>6.6</speed>
</trkpt>
<trkpt lat="35.915134" lon="139.445655">
<ele>8.6</ele>
<time>2026-03-26T23:19:49Z</time>
<speed>6.8</speed>
</trkpt>
<trkpt lat="35.914962" lon="139.445345">
<ele>8.6</ele>
<time>2026-03-26T23:19:54Z</time>
<speed>7.0</speed>
</trkpt>
<trkpt lat="35.914820" lon="139.444913">
<ele>8.6</ele>
<time>2026-03-26T23:20:00Z</time>
<speed>6.7</speed>
</trkpt>
<trkpt lat="35.914744" lon="139.444475">
<ele>8.6</ele>
<time>2026-03-26T23:20:06Z</time>
<speed>6.6</speed>
</trkpt>
<trkpt lat="35.914661" lon="139.443902">
<ele>8.6</ele>
<time>2026-03-26T23:20:14Z</time>
<speed>6.6</speed>
</trkpt>
<trkpt lat="35.914640" lon="139.443833">
<ele>8.6</ele>
<time>2026-03-26T23:20:15Z</time>
<speed>6.7</speed>
</trkpt>
<trkpt lat="35.914614" lon="139.443766">
<ele>8.6</ele>
<time>2026-03-26T23:20:16Z</time>
<speed>6.7</speed>
</trkpt>
<trkpt lat="35.914507" lon="139.443586">
<ele>8.6</ele>
<time>2026-03-26T23:20:19Z</time>
<speed>6.9</speed>
</trkpt>
<trkpt lat="35.914465" lon="139.443530">
<ele>8.6</ele>
<time>2026-03-26T23:20:20Z</time>
<speed>6.7</speed>
</trkpt>
<trkpt lat="35.914144" lon="139.443088">
<ele>8.6</ele>
<time>2026-03-26T23:20:28Z</time>
<speed>6.6</speed>
</trkpt>
<trkpt lat="35.913831" lon="139.442648">
<ele>8.8</ele>
<time>2026-03-26T23:20:36Z</time>
<speed>6.5</speed>
</trkpt>
<trkpt lat="35.913636" lon="139.442377">
<ele>8.8</ele>
<time>2026-03-26T23:20:41Z</time>
<speed>6.6</speed>
</trkpt>
<trkpt lat="35.913560" lon="139.442264">
<ele>9.0</ele>
<time>2026-03-26T23:20:43Z</time>
<speed>6.7</speed>
</trkpt>
<trkpt lat="35.913283" lon="139.441871">
<ele>9.4</ele>
<time>2026-03-26T23:20:50Z</time>
<speed>6.7</speed>
</trkpt>
<trkpt lat="35.912925" lon="139.441366">
<ele>9.6</ele>
<time>2026-03-26T23:20:59Z</time>
<speed>6.8</speed>
</trkpt>
<trkpt lat="35.912883" lon="139.441311">
<ele>9.6</ele>
<time>2026-03-26T23:21:00Z</time>
<speed>6.7</speed>
</trkpt>
<trkpt lat="35.912520" lon="139.440807">
<ele>9.6</ele>
<time>2026-03-26T23:21:09Z</time>
<speed>6.3</speed>
</trkpt>
<trkpt lat="35.912443" lon="139.440705">
<ele>9.6</ele>
<time>2026-03-26T23:21:11Z</time>
<speed>5.7</speed>
</trkpt>
<trkpt lat="35.912234" lon="139.440430">
<ele>9.6</ele>
<time>2026-03-26T23:21:17Z</time>
<speed>4.9</speed>
</trkpt>
<trkpt lat="35.912202" lon="139.440392">
<ele>9.6</ele>
<time>2026-03-26T23:21:18Z</time>
<speed>3.6</speed>
</trkpt>
<trkpt lat="35.912155" lon="139.440337">
<ele>9.6</ele>
<time>2026-03-26T23:21:20Z</time>
<speed>0.7</speed>
</trkpt>
<trkpt lat="35.912145" lon="139.440327">
<ele>9.6</ele>
<time>2026-03-26T23:21:22Z</time>
<speed>0.0</speed>
</trkpt>
<trkpt lat="35.912130" lon="139.440299">
<ele>10.2</ele>
<time>2026-03-26T23:23:27Z</time>
<speed>2.4</speed>
</trkpt>
<trkpt lat="35.912139" lon="139.440275">
<ele>10.2</ele>
<time>2026-03-26T23:23:28Z</time>
<speed>2.7</speed>
</trkpt>
<trkpt lat="35.912155" lon="139.440252">
<ele>10.2</ele>
<time>2026-03-26T23:23:29Z</time>
<speed>2.7</speed>
</trkpt>
<trkpt lat="35.912163" lon="139.440161">
<ele>10.2</ele>
<time>2026-03-26T23:23:32Z</time>
<speed>3.4</speed>
</trkpt>
<trkpt lat="35.912160" lon="139.440123">
<ele>10.2</ele>
<time>2026-03-26T23:23:33Z</time>
<speed>4.2</speed>
</trkpt>
<trkpt lat="35.912201" lon="139.439945">
<ele>10.0</ele>
<time>2026-03-26T23:23:37Z</time>
<speed>5.0</speed>
</trkpt>
<trkpt lat="35.912307" lon="139.439520">
<ele>10.0</ele>
<time>2026-03-26T23:23:45Z</time>
<speed>5.8</speed>
</trkpt>
<trkpt lat="35.912444" lon="139.438969">
<ele>10.0</ele>
<time>2026-03-26T23:23:54Z</time>
<speed>5.7</speed>
</trkpt>
<trkpt lat="35.912479" lon="139.438783">
<ele>9.8</ele>
<time>2026-03-26T23:23:57Z</time>
<speed>5.7</speed>
</trkpt>
<trkpt lat="35.912496" lon="139.438659">
<ele>9.8</ele>
<time>2026-03-26T23:23:59Z</time>
<speed>5.9</speed>
</trkpt>
<trkpt lat="35.912523" lon="139.438533">
<ele>9.8</ele>
<time>2026-03-26T23:24:01Z</time>
<speed>5.8</speed>
</trkpt>
<trkpt lat="35.912559" lon="139.438411">
<ele>9.8</ele>
<time>2026-03-26T23:24:03Z</time>
<speed>4.7</speed>
</trkpt>
<trkpt lat="35.912579" lon="139.438257">
<ele>9.8</ele>
<time>2026-03-26T23:24:06Z</time>
<speed>3.2</speed>
</trkpt>
<trkpt lat="35.912568" lon="139.438224">
<ele>9.8</ele>
<time>2026-03-26T23:24:07Z</time>
<speed>2.7</speed>
</trkpt>
<trkpt lat="35.912526" lon="139.438152">
<ele>9.8</ele>
<time>2026-03-26T23:24:10Z</time>
<speed>0.0</speed>
</trkpt>
<trkpt lat="35.912526" lon="139.438152">
<ele>9.8</ele>
<time>2026-03-26T23:24:15Z</time>
<speed>3.7</speed>
</trkpt>
<trkpt lat="35.912293" lon="139.438120">
<ele>10.0</ele>
<time>2026-03-26T23:24:22Z</time>
<speed>3.9</speed>
</trkpt>
<trkpt lat="35.912260" lon="139.438136">
<ele>10.0</ele>
<time>2026-03-26T23:24:23Z</time>
<speed>5.3</speed>
</trkpt>
<trkpt lat="35.912086" lon="139.438231">
<ele>10.2</ele>
<time>2026-03-26T23:24:27Z</time>
<speed>4.6</speed>
</trkpt>
<trkpt lat="35.911986" lon="139.438570">
<ele>10.2</ele>
<time>2026-03-26T23:24:34Z</time>
<speed>4.7</speed>
</trkpt>
<trkpt lat="35.911880" lon="139.438964">
<ele>10.2</ele>
<time>2026-03-26T23:24:42Z</time>
<speed>4.0</speed>
</trkpt>
<trkpt lat="35.911831" lon="139.439221">
<ele>10.2</ele>
<time>2026-03-26T23:24:48Z</time>
<speed>4.2</speed>
</trkpt>
<trkpt lat="35.911729" lon="139.439575">
<ele>10.6</ele>
<time>2026-03-26T23:24:56Z</time>
<speed>3.4</speed>
</trkpt>
<trkpt lat="35.911651" lon="139.439692">
<ele>10.6</ele>
<time>2026-03-26T23:25:00Z</time>
<speed>2.7</speed>
</trkpt>
<trkpt lat="35.911627" lon="139.439685">
<ele>10.6</ele>
<time>2026-03-26T23:25:01Z</time>
<speed>4.1</speed>
</trkpt>
<trkpt lat="35.911546" lon="139.439594">
<ele>10.6</ele>
<time>2026-03-26T23:25:04Z</time>
<speed>5.1</speed>
</trkpt>
<trkpt lat="35.911514" lon="139.439554">
<ele>10.6</ele>
<time>2026-03-26T23:25:05Z</time>
<speed>5.1</speed>
</trkpt>
<trkpt lat="35.911445" lon="139.439481">
<ele>10.6</ele>
<time>2026-03-26T23:25:07Z</time>
<speed>5.4</speed>
</trkpt>
<trkpt lat="35.911292" lon="139.439335">
<ele>10.4</ele>
<time>2026-03-26T23:25:11Z</time>
<speed>5.8</speed>
</trkpt>
<trkpt lat="35.910917" lon="139.438894">
<ele>10.2</ele>
<time>2026-03-26T23:25:21Z</time>
<speed>6.5</speed>
</trkpt>
<trkpt lat="35.910791" lon="139.438745">
<ele>10.2</ele>
<time>2026-03-26T23:25:24Z</time>
<speed>6.3</speed>
</trkpt>
<trkpt lat="35.910742" lon="139.438709">
<ele>10.2</ele>
<time>2026-03-26T23:25:25Z</time>
<speed>5.2</speed>
</trkpt>
<trkpt lat="35.910544" lon="139.438559">
<ele>10.2</ele>
<time>2026-03-26T23:25:30Z</time>
<speed>4.9</speed>
</trkpt>
<trkpt lat="35.910275" lon="139.438373">
<ele>10.4</ele>
<time>2026-03-26T23:25:37Z</time>
<speed>5.5</speed>
</trkpt>
<trkpt lat="35.910227" lon="139.438360">
<ele>10.4</ele>
<time>2026-03-26T23:25:38Z</time>
<speed>5.9</speed>
</trkpt>
<trkpt lat="35.910122" lon="139.438335">
<ele>10.8</ele>
<time>2026-03-26T23:25:40Z</time>
<speed>6.2</speed>
</trkpt>
<trkpt lat="35.910015" lon="139.438300">
<ele>10.8</ele>
<time>2026-03-26T23:25:42Z</time>
<speed>5.9</speed>
</trkpt>
<trkpt lat="35.909606" lon="139.438147">
<ele>11.0</ele>
<time>2026-03-26T23:25:50Z</time>
<speed>5.8</speed>
</trkpt>
<trkpt lat="35.909563" lon="139.438111">
<ele>11.0</ele>
<time>2026-03-26T23:25:51Z</time>
<speed>5.9</speed>
</trkpt>
<trkpt lat="35.909423" lon="139.437914">
<ele>11.0</ele>
<time>2026-03-26T23:25:55Z</time>
<speed>6.0</speed>
</trkpt>
<trkpt lat="35.909204" lon="139.437624">
<ele>11.2</ele>
<time>2026-03-26T23:26:01Z</time>
<speed>5.8</speed>
</trkpt>
<trkpt lat="35.909169" lon="139.437577">
<ele>11.2</ele>
<time>2026-03-26T23:26:02Z</time>
<speed>6.1</speed>
</trkpt>
<trkpt lat="35.908885" lon="139.437260">
<ele>11.2</ele>
<time>2026-03-26T23:26:09Z</time>
<speed>5.7</speed>
</trkpt>
<trkpt lat="35.908700" lon="139.437040">
<ele>11.6</ele>
<time>2026-03-26T23:26:14Z</time>
<speed>6.4</speed>
</trkpt>
<trkpt lat="35.908666" lon="139.436983">
<ele>11.6</ele>
<time>2026-03-26T23:26:15Z</time>
<speed>6.4</speed>
</trkpt>
<trkpt lat="35.908602" lon="139.436865">
<ele>11.8</ele>
<time>2026-03-26T23:26:17Z</time>
<speed>6.1</speed>
</trkpt>
<trkpt lat="35.908385" lon="139.436470">
<ele>12.2</ele>
<time>2026-03-26T23:26:24Z</time>
<speed>5.7</speed>
</trkpt>
<trkpt lat="35.908218" lon="139.436154">
<ele>12.2</ele>
<time>2026-03-26T23:26:30Z</time>
<speed>5.1</speed>
</trkpt>
<trkpt lat="35.908191" lon="139.436108">
<ele>12.4</ele>
<time>2026-03-26T23:26:31Z</time>
<speed>5.3</speed>
</trkpt>
<trkpt lat="35.908142" lon="139.436007">
<ele>12.4</ele>
<time>2026-03-26T23:26:33Z</time>
<speed>5.7</speed>
</trkpt>
<trkpt lat="35.908052" lon="139.435853">
<ele>12.4</ele>
<time>2026-03-26T23:26:36Z</time>
<speed>6.1</speed>
</trkpt>
<trkpt lat="35.907779" lon="139.435343">
<ele>12.4</ele>
<time>2026-03-26T23:26:45Z</time>
<speed>6.3</speed>
</trkpt>
<trkpt lat="35.907528" lon="139.434875">
<ele>12.4</ele>
<time>2026-03-26T23:26:53Z</time>
<speed>6.3</speed>
</trkpt>
<trkpt lat="35.907218" lon="139.434283">
<ele>12.4</ele>
<time>2026-03-26T23:27:03Z</time>
<speed>5.5</speed>
</trkpt>
<trkpt lat="35.907083" lon="139.434024">
<ele>12.4</ele>
<time>2026-03-26T23:27:08Z</time>
<speed>5.1</speed>
</trkpt>
<trkpt lat="35.907064" lon="139.433972">
<ele>12.4</ele>
<time>2026-03-26T23:27:09Z</time>
<speed>4.9</speed>
</trkpt>
<trkpt lat="35.907041" lon="139.433925">
<ele>12.4</ele>
<time>2026-03-26T23:27:10Z</time>
<speed>5.4</speed>
</trkpt>
<trkpt lat="35.906945" lon="139.433790">
<ele>12.4</ele>
<time>2026-03-26T23:27:13Z</time>
<speed>5.9</speed>
</trkpt>
<trkpt lat="35.906858" lon="139.433624">
<ele>12.6</ele>
<time>2026-03-26T23:27:16Z</time>
<speed>5.8</speed>
</trkpt>
<trkpt lat="35.906808" lon="139.433510">
<ele>12.8</ele>
<time>2026-03-26T23:27:18Z</time>
<speed>5.9</speed>
</trkpt>
<trkpt lat="35.906785" lon="139.433451">
<ele>12.8</ele>
<time>2026-03-26T23:27:19Z</time>
<speed>6.1</speed>
</trkpt>
<trkpt lat="35.906558" lon="139.432908">
<ele>13.0</ele>
<time>2026-03-26T23:27:28Z</time>
<speed>6.2</speed>
</trkpt>
<trkpt lat="35.906528" lon="139.432850">
<ele>13.2</ele>
<time>2026-03-26T23:27:29Z</time>
<speed>6.4</speed>
</trkpt>
<trkpt lat="35.906402" lon="139.432705">
<ele>13.2</ele>
<time>2026-03-26T23:27:32Z</time>
<speed>5.9</speed>
</trkpt>
<trkpt lat="35.906363" lon="139.432661">
<ele>13.4</ele>
<time>2026-03-26T23:27:33Z</time>
<speed>6.6</speed>
</trkpt>
<trkpt lat="35.906265" lon="139.432478">
<ele>13.4</ele>
<time>2026-03-26T23:27:36Z</time>
<speed>6.8</speed>
</trkpt>
<trkpt lat="35.906212" lon="139.432343">
<ele>13.4</ele>
<time>2026-03-26T23:27:38Z</time>
<speed>6.7</speed>
</trkpt>
<trkpt lat="35.906182" lon="139.432279">
<ele>13.4</ele>
<time>2026-03-26T23:27:39Z</time>
<speed>6.4</speed>
</trkpt>
<trkpt lat="35.906077" lon="139.432109">
<ele>13.4</ele>
<time>2026-03-26T23:27:42Z</time>
<speed>6.6</speed>
</trkpt>
<trkpt lat="35.905814" lon="139.431814">
<ele>13.4</ele>
<time>2026-03-26T23:27:48Z</time>
<speed>7.3</speed>
</trkpt>
<trkpt lat="35.905416" lon="139.431527">
<ele>13.4</ele>
<time>2026-03-26T23:27:55Z</time>
<speed>7.8</speed>
</trkpt>
<trkpt lat="35.905186" lon="139.431329">
<ele>13.2</ele>
<time>2026-03-26T23:27:59Z</time>
<speed>7.8</speed>
</trkpt>
<trkpt lat="35.905140" lon="139.431264">
<ele>13.0</ele>
<time>2026-03-26T23:28:00Z</time>
<speed>7.3</speed>
</trkpt>
<trkpt lat="35.904960" lon="139.430925">
<ele>11.6</ele>
<time>2026-03-26T23:28:05Z</time>
<speed>6.6</speed>
</trkpt>
<trkpt lat="35.904669" lon="139.430370">
<ele>10.6</ele>
<time>2026-03-26T23:28:14Z</time>
<speed>5.6</speed>
</trkpt>
<trkpt lat="35.904501" lon="139.430056">
<ele>10.6</ele>
<time>2026-03-26T23:28:20Z</time>
<speed>5.0</speed>
</trkpt>
<trkpt lat="35.904394" lon="139.429875">
<ele>10.8</ele>
<time>2026-03-26T23:28:24Z</time>
<speed>5.3</speed>
</trkpt>
<trkpt lat="35.904342" lon="139.429776">
<ele>11.0</ele>
<time>2026-03-26T23:28:26Z</time>
<speed>4.7</speed>
</trkpt>
<trkpt lat="35.904232" lon="139.429553">
<ele>11.2</ele>
<time>2026-03-26T23:28:31Z</time>
<speed>3.7</speed>
</trkpt>
<trkpt lat="35.904131" lon="139.429388">
<ele>11.2</ele>
<time>2026-03-26T23:28:36Z</time>
<speed>6.1</speed>
</trkpt>
<trkpt lat="35.903881" lon="139.429119">
<ele>11.4</ele>
<time>2026-03-26T23:28:42Z</time>
<speed>6.7</speed>
</trkpt>
<trkpt lat="35.903519" lon="139.428727">
<ele>11.6</ele>
<time>2026-03-26T23:28:50Z</time>
<speed>6.6</speed>
</trkpt>
<trkpt lat="35.903113" lon="139.428295">
<ele>11.6</ele>
<time>2026-03-26T23:28:59Z</time>
<speed>6.7</speed>
</trkpt>
<trkpt lat="35.902704" lon="139.427857">
<ele>11.8</ele>
<time>2026-03-26T23:29:08Z</time>
<speed>6.7</speed>
</trkpt>
<trkpt lat="35.902296" lon="139.427423">
<ele>12.0</ele>
<time>2026-03-26T23:29:17Z</time>
<speed>5.4</speed>
</trkpt>
<trkpt lat="35.902230" lon="139.427334">
<ele>12.0</ele>
<time>2026-03-26T23:29:19Z</time>
<speed>4.7</speed>
</trkpt>
<trkpt lat="35.902222" lon="139.427231">
<ele>12.2</ele>
<time>2026-03-26T23:29:21Z</time>
<speed>4.9</speed>
</trkpt>
<trkpt lat="35.902251" lon="139.427129">
<ele>12.2</ele>
<time>2026-03-26T23:29:23Z</time>
<speed>4.7</speed>
</trkpt>
<trkpt lat="35.902276" lon="139.427029">
<ele>12.4</ele>
<time>2026-03-26T23:29:25Z</time>
<speed>4.8</speed>
</trkpt>
<trkpt lat="35.902294" lon="139.426981">
<ele>12.4</ele>
<time>2026-03-26T23:29:26Z</time>
<speed>4.4</speed>
</trkpt>
<trkpt lat="35.902341" lon="139.426795">
<ele>12.6</ele>
<time>2026-03-26T23:29:30Z</time>
<speed>3.9</speed>
</trkpt>
<trkpt lat="35.902323" lon="139.426758">
<ele>12.6</ele>
<time>2026-03-26T23:29:31Z</time>
<speed>4.0</speed>
</trkpt>
<trkpt lat="35.902230" lon="139.426691">
<ele>12.8</ele>
<time>2026-03-26T23:29:34Z</time>
<speed>4.8</speed>
</trkpt>
<trkpt lat="35.902093" lon="139.426487">
<ele>13.2</ele>
<time>2026-03-26T23:29:39Z</time>
<speed>5.6</speed>
</trkpt>
<trkpt lat="35.901969" lon="139.426290">
<ele>13.6</ele>
<time>2026-03-26T23:29:43Z</time>
<speed>6.0</speed>
</trkpt>
<trkpt lat="35.901926" lon="139.426250">
<ele>13.6</ele>
<time>2026-03-26T23:29:44Z</time>
<speed>5.6</speed>
</trkpt>
<trkpt lat="35.901882" lon="139.426220">
<ele>13.6</ele>
<time>2026-03-26T23:29:45Z</time>
<speed>5.2</speed>
</trkpt>
<trkpt lat="35.901749" lon="139.426161">
<ele>13.6</ele>
<time>2026-03-26T23:29:48Z</time>
<speed>5.2</speed>
</trkpt>
<trkpt lat="35.901656" lon="139.426143">
<ele>13.6</ele>
<time>2026-03-26T23:29:50Z</time>
<speed>5.7</speed>
</trkpt>
<trkpt lat="35.901402" lon="139.426104">
<ele>13.6</ele>
<time>2026-03-26T23:29:55Z</time>
<speed>5.8</speed>
</trkpt>
<trkpt lat="35.901355" lon="139.426076">
<ele>13.6</ele>
<time>2026-03-26T23:29:56Z</time>
<speed>5.6</speed>
</trkpt>
<trkpt lat="35.901197" lon="139.425924">
<ele>13.6</ele>
<time>2026-03-26T23:30:00Z</time>
<speed>5.3</speed>
</trkpt>
<trkpt lat="35.901166" lon="139.425879">
<ele>13.6</ele>
<time>2026-03-26T23:30:01Z</time>
<speed>5.1</speed>
</trkpt>
<trkpt lat="35.900964" lon="139.425647">
<ele>13.6</ele>
<time>2026-03-26T23:30:07Z</time>
<speed>5.2</speed>
</trkpt>
<trkpt lat="35.900925" lon="139.425616">
<ele>13.6</ele>
<time>2026-03-26T23:30:08Z</time>
<speed>5.5</speed>
</trkpt>
<trkpt lat="35.900690" lon="139.425392">
<ele>13.6</ele>
<time>2026-03-26T23:30:14Z</time>
<speed>5.4</speed>
</trkpt>
<trkpt lat="35.900657" lon="139.425348">
<ele>13.6</ele>
<time>2026-03-26T23:30:15Z</time>
<speed>5.7</speed>
</trkpt>
<trkpt lat="35.900589" lon="139.425254">
<ele>13.6</ele>
<time>2026-03-26T23:30:17Z</time>
<speed>5.6</speed>
</trkpt>
<trkpt lat="35.900461" lon="139.425157">
<ele>13.6</ele>
<time>2026-03-26T23:30:20Z</time>
<speed>5.5</speed>
</trkpt>
<trkpt lat="35.900368" lon="139.425113">
<ele>13.6</ele>
<time>2026-03-26T23:30:22Z</time>
<speed>5.4</speed>
</trkpt>
<trkpt lat="35.900098" lon="139.424979">
<ele>13.6</ele>
<time>2026-03-26T23:30:28Z</time>
<speed>5.8</speed>
</trkpt>
<trkpt lat="35.899847" lon="139.424751">
<ele>13.4</ele>
<time>2026-03-26T23:30:34Z</time>
<speed>6.0</speed>
</trkpt>
<trkpt lat="35.899677" lon="139.424590">
<ele>13.4</ele>
<time>2026-03-26T23:30:38Z</time>
<speed>5.9</speed>
</trkpt>
<trkpt lat="35.899580" lon="139.424538">
<ele>13.4</ele>
<time>2026-03-26T23:30:40Z</time>
<speed>5.9</speed>
</trkpt>
<trkpt lat="35.899477" lon="139.424506">
<ele>13.4</ele>
<time>2026-03-26T23:30:42Z</time>
<speed>6.0</speed>
</trkpt>
<trkpt lat="35.899315" lon="139.424484">
<ele>13.4</ele>
<time>2026-03-26T23:30:45Z</time>
<speed>6.1</speed>
</trkpt>
<trkpt lat="35.899207" lon="139.424467">
<ele>13.4</ele>
<time>2026-03-26T23:30:47Z</time>
<speed>5.9</speed>
</trkpt>
<trkpt lat="35.899111" lon="139.424412">
<ele>13.4</ele>
<time>2026-03-26T23:30:49Z</time>
<speed>6.1</speed>
</trkpt>
<trkpt lat="35.899001" lon="139.424263">
<ele>13.4</ele>
<time>2026-03-26T23:30:52Z</time>
<speed>6.0</speed>
</trkpt>
<trkpt lat="35.898969" lon="139.424210">
<ele>13.4</ele>
<time>2026-03-26T23:30:53Z</time>
<speed>5.8</speed>
</trkpt>
<trkpt lat="35.898904" lon="139.424109">
<ele>13.6</ele>
<time>2026-03-26T23:30:55Z</time>
<speed>5.3</speed>
</trkpt>
<trkpt lat="35.898749" lon="139.423973">
<ele>13.6</ele>
<time>2026-03-26T23:30:59Z</time>
<speed>5.5</speed>
</trkpt>
<trkpt lat="35.898558" lon="139.423911">
<ele>13.6</ele>
<time>2026-03-26T23:31:03Z</time>
<speed>5.5</speed>
</trkpt>
<trkpt lat="35.898510" lon="139.423897">
<ele>13.6</ele>
<time>2026-03-26T23:31:04Z</time>
<speed>5.7</speed>
</trkpt>
<trkpt lat="35.898168" lon="139.423769">
<ele>13.6</ele>
<time>2026-03-26T23:31:11Z</time>
<speed>5.9</speed>
</trkpt>
<trkpt lat="35.897776" lon="139.423576">
<ele>13.6</ele>
<time>2026-03-26T23:31:19Z</time>
<speed>6.1</speed>
</trkpt>
<trkpt lat="35.897730" lon="139.423540">
<ele>13.6</ele>
<time>2026-03-26T23:31:20Z</time>
<speed>5.7</speed>
</trkpt>
<trkpt lat="35.897618" lon="139.423409">
<ele>13.6</ele>
<time>2026-03-26T23:31:23Z</time>
<speed>5.6</speed>
</trkpt>
<trkpt lat="35.897583" lon="139.423365">
<ele>13.6</ele>
<time>2026-03-26T23:31:24Z</time>
<speed>5.6</speed>
</trkpt>
<trkpt lat="35.897500" lon="139.423293">
<ele>13.6</ele>
<time>2026-03-26T23:31:26Z</time>
<speed>5.9</speed>
</trkpt>
<trkpt lat="35.897397" lon="139.423263">
<ele>13.6</ele>
<time>2026-03-26T23:31:28Z</time>
<speed>6.3</speed>
</trkpt>
<trkpt lat="35.897009" lon="139.423164">
<ele>13.4</ele>
<time>2026-03-26T23:31:35Z</time>
<speed>6.2</speed>
</trkpt>
<trkpt lat="35.896959" lon="139.423134">
<ele>13.4</ele>
<time>2026-03-26T23:31:36Z</time>
<speed>5.7</speed>
</trkpt>
<trkpt lat="35.896852" lon="139.422999">
<ele>13.4</ele>
<time>2026-03-26T23:31:39Z</time>
<speed>4.9</speed>
</trkpt>
<trkpt lat="35.896795" lon="139.422852">
<ele>13.4</ele>
<time>2026-03-26T23:31:42Z</time>
<speed>5.0</speed>
</trkpt>
<trkpt lat="35.896756" lon="139.422751">
<ele>13.4</ele>
<time>2026-03-26T23:31:44Z</time>
<speed>4.8</speed>
</trkpt>
<trkpt lat="35.896702" lon="139.422668">
<ele>13.4</ele>
<time>2026-03-26T23:31:46Z</time>
<speed>4.4</speed>
</trkpt>
<trkpt lat="35.896641" lon="139.422606">
<ele>13.4</ele>
<time>2026-03-26T23:31:48Z</time>
<speed>4.3</speed>
</trkpt>
<trkpt lat="35.896593" lon="139.422531">
<ele>13.4</ele>
<time>2026-03-26T23:31:50Z</time>
<speed>3.7</speed>
</trkpt>
<trkpt lat="35.896549" lon="139.422419">
<ele>13.6</ele>
<time>2026-03-26T23:31:53Z</time>
<speed>3.1</speed>
</trkpt>
<trkpt lat="35.896620" lon="139.422310">
<ele>13.6</ele>
<time>2026-03-26T23:31:57Z</time>
<speed>3.5</speed>
</trkpt>
<trkpt lat="35.896659" lon="139.422249">
<ele>13.6</ele>
<time>2026-03-26T23:31:59Z</time>
<speed>3.5</speed>
</trkpt>
<trkpt lat="35.896686" lon="139.422179">
<ele>13.6</ele>
<time>2026-03-26T23:32:01Z</time>
<speed>2.5</speed>
</trkpt>
<trkpt lat="35.896683" lon="139.422124">
<ele>13.8</ele>
<time>2026-03-26T23:32:03Z</time>
<speed>3.7</speed>
</trkpt>
<trkpt lat="35.896642" lon="139.422059">
<ele>13.8</ele>
<time>2026-03-26T23:32:05Z</time>
<speed>4.9</speed>
</trkpt>
<trkpt lat="35.896527" lon="139.421896">
<ele>13.8</ele>
<time>2026-03-26T23:32:09Z</time>
<speed>5.1</speed>
</trkpt>
<trkpt lat="35.896470" lon="139.421807">
<ele>14.4</ele>
<time>2026-03-26T23:32:11Z</time>
<speed>5.3</speed>
</trkpt>
<trkpt lat="35.896441" lon="139.421761">
<ele>14.6</ele>
<time>2026-03-26T23:32:12Z</time>
<speed>5.4</speed>
</trkpt>
<trkpt lat="35.896341" lon="139.421631">
<ele>15.2</ele>
<time>2026-03-26T23:32:15Z</time>
<speed>5.3</speed>
</trkpt>
<trkpt lat="35.896214" lon="139.421550">
<ele>15.2</ele>
<time>2026-03-26T23:32:18Z</time>
<speed>5.3</speed>
</trkpt>
<trkpt lat="35.896168" lon="139.421533">
<ele>15.2</ele>
<time>2026-03-26T23:32:19Z</time>
<speed>5.8</speed>
</trkpt>
<trkpt lat="35.895963" lon="139.421476">
<ele>15.2</ele>
<time>2026-03-26T23:32:23Z</time>
<speed>6.1</speed>
</trkpt>
<trkpt lat="35.895657" lon="139.421321">
<ele>15.4</ele>
<time>2026-03-26T23:32:29Z</time>
<speed>6.6</speed>
</trkpt>
<trkpt lat="35.895223" lon="139.421083">
<ele>15.4</ele>
<time>2026-03-26T23:32:37Z</time>
<speed>7.2</speed>
</trkpt>
<trkpt lat="35.894790" lon="139.420916">
<ele>14.8</ele>
<time>2026-03-26T23:32:44Z</time>
<speed>6.9</speed>
</trkpt>
<trkpt lat="35.894607" lon="139.420870">
<ele>14.4</ele>
<time>2026-03-26T23:32:47Z</time>
<speed>6.6</speed>
</trkpt>
<trkpt lat="35.894371" lon="139.420847">
<ele>14.2</ele>
<time>2026-03-26T23:32:51Z</time>
<speed>6.4</speed>
</trkpt>
<trkpt lat="35.893913" lon="139.420778">
<ele>14.2</ele>
<time>2026-03-26T23:32:59Z</time>
<speed>6.5</speed>
</trkpt>
<trkpt lat="35.893336" lon="139.420703">
<ele>15.0</ele>
<time>2026-03-26T23:33:09Z</time>
<speed>6.4</speed>
</trkpt>
<trkpt lat="35.892945" lon="139.420573">
<ele>15.2</ele>
<time>2026-03-26T23:33:16Z</time>
<speed>6.3</speed>
</trkpt>
<trkpt lat="35.892741" lon="139.420454">
<ele>15.4</ele>
<time>2026-03-26T23:33:20Z</time>
<speed>5.6</speed>
</trkpt>
<trkpt lat="35.892654" lon="139.420391">
<ele>15.4</ele>
<time>2026-03-26T23:33:22Z</time>
<speed>5.3</speed>
</trkpt>
<trkpt lat="35.892418" lon="139.420189">
<ele>15.6</ele>
<time>2026-03-26T23:33:28Z</time>
<speed>4.8</speed>
</trkpt>
<trkpt lat="35.892388" lon="139.420150">
<ele>15.8</ele>
<time>2026-03-26T23:33:29Z</time>
<speed>4.7</speed>
</trkpt>
<trkpt lat="35.892274" lon="139.419994">
<ele>16.8</ele>
<time>2026-03-26T23:33:33Z</time>
<speed>4.6</speed>
</trkpt>
<trkpt lat="35.892207" lon="139.419934">
<ele>17.2</ele>
<time>2026-03-26T23:33:35Z</time>
<speed>4.7</speed>
</trkpt>
<trkpt lat="35.892103" lon="139.419842">
<ele>17.8</ele>
<time>2026-03-26T23:33:38Z</time>
<speed>5.4</speed>
</trkpt>
<trkpt lat="35.891985" lon="139.419735">
<ele>18.2</ele>
<time>2026-03-26T23:33:41Z</time>
<speed>6.0</speed>
</trkpt>
<trkpt lat="35.891684" lon="139.419454">
<ele>18.6</ele>
<time>2026-03-26T23:33:48Z</time>
<speed>6.5</speed>
</trkpt>
<trkpt lat="35.891212" lon="139.419024">
<ele>18.6</ele>
<time>2026-03-26T23:33:58Z</time>
<speed>6.5</speed>
</trkpt>
<trkpt lat="35.891158" lon="139.418995">
<ele>18.6</ele>
<time>2026-03-26T23:33:59Z</time>
<speed>6.5</speed>
</trkpt>
<trkpt lat="35.890988" lon="139.418938">
<ele>18.6</ele>
<time>2026-03-26T23:34:02Z</time>
<speed>6.6</speed>
</trkpt>
<trkpt lat="35.890635" lon="139.418862">
<ele>18.6</ele>
<time>2026-03-26T23:34:08Z</time>
<speed>6.5</speed>
</trkpt>
<trkpt lat="35.890189" lon="139.418691">
<ele>18.6</ele>
<time>2026-03-26T23:34:16Z</time>
<speed>6.2</speed>
</trkpt>
<trkpt lat="35.889775" lon="139.418497">
<ele>18.8</ele>
<time>2026-03-26T23:34:24Z</time>
<speed>6.4</speed>
</trkpt>
<trkpt lat="35.889673" lon="139.418325">
<ele>18.8</ele>
<time>2026-03-26T23:34:27Z</time>
<speed>6.0</speed>
</trkpt>
<trkpt lat="35.889600" lon="139.418145">
<ele>18.8</ele>
<time>2026-03-26T23:34:30Z</time>
<speed>5.7</speed>
</trkpt>
<trkpt lat="35.889563" lon="139.418101">
<ele>18.8</ele>
<time>2026-03-26T23:34:31Z</time>
<speed>6.0</speed>
</trkpt>
<trkpt lat="35.889420" lon="139.418004">
<ele>18.8</ele>
<time>2026-03-26T23:34:34Z</time>
<speed>6.1</speed>
</trkpt>
<trkpt lat="35.889370" lon="139.417975">
<ele>19.0</ele>
<time>2026-03-26T23:34:35Z</time>
<speed>6.5</speed>
</trkpt>
<trkpt lat="35.888945" lon="139.417738">
<ele>19.4</ele>
<time>2026-03-26T23:34:43Z</time>
<speed>6.2</speed>
</trkpt>
<trkpt lat="35.888739" lon="139.417631">
<ele>19.4</ele>
<time>2026-03-26T23:34:47Z</time>
<speed>6.3</speed>
</trkpt>
<trkpt lat="35.888583" lon="139.417549">
<ele>19.4</ele>
<time>2026-03-26T23:34:50Z</time>
<speed>6.0</speed>
</trkpt>
<trkpt lat="35.888245" lon="139.417348">
<ele>19.6</ele>
<time>2026-03-26T23:34:57Z</time>
<speed>5.4</speed>
</trkpt>
<trkpt lat="35.888206" lon="139.417313">
<ele>19.8</ele>
<time>2026-03-26T23:34:58Z</time>
<speed>5.3</speed>
</trkpt>
<trkpt lat="35.888134" lon="139.417161">
<ele>19.8</ele>
<time>2026-03-26T23:35:01Z</time>
<speed>5.4</speed>
</trkpt>
<trkpt lat="35.888116" lon="139.417105">
<ele>19.8</ele>
<time>2026-03-26T23:35:02Z</time>
<speed>5.6</speed>
</trkpt>
<trkpt lat="35.888092" lon="139.417050">
<ele>19.8</ele>
<time>2026-03-26T23:35:03Z</time>
<speed>5.5</speed>
</trkpt>
<trkpt lat="35.888061" lon="139.417002">
<ele>19.8</ele>
<time>2026-03-26T23:35:04Z</time>
<speed>5.8</speed>
</trkpt>
<trkpt lat="35.887978" lon="139.416925">
<ele>20.0</ele>
<time>2026-03-26T23:35:06Z</time>
<speed>5.9</speed>
</trkpt>
<trkpt lat="35.887935" lon="139.416887">
<ele>20.0</ele>
<time>2026-03-26T23:35:07Z</time>
<speed>6.2</speed>
</trkpt>
<trkpt lat="35.887617" lon="139.416614">
<ele>20.2</ele>
<time>2026-03-26T23:35:14Z</time>
<speed>6.6</speed>
</trkpt>
<trkpt lat="35.887413" lon="139.416467">
<ele>20.2</ele>
<time>2026-03-26T23:35:18Z</time>
<speed>4.8</speed>
</trkpt>
<trkpt lat="35.887267" lon="139.416350">
<ele>20.2</ele>
<time>2026-03-26T23:35:22Z</time>
<speed>6.0</speed>
</trkpt>
<trkpt lat="35.886952" lon="139.416087">
<ele>19.6</ele>
<time>2026-03-26T23:35:29Z</time>
<speed>5.6</speed>
</trkpt>
<trkpt lat="35.886913" lon="139.416047">
<ele>19.6</ele>
<time>2026-03-26T23:35:30Z</time>
<speed>5.6</speed>
</trkpt>
<trkpt lat="35.886777" lon="139.415865">
<ele>19.6</ele>
<time>2026-03-26T23:35:34Z</time>
<speed>5.3</speed>
</trkpt>
<trkpt lat="35.886741" lon="139.415827">
<ele>19.6</ele>
<time>2026-03-26T23:35:35Z</time>
<speed>5.2</speed>
</trkpt>
<trkpt lat="35.886599" lon="139.415676">
<ele>19.6</ele>
<time>2026-03-26T23:35:39Z</time>
<speed>5.2</speed>
</trkpt>
<trkpt lat="35.886527" lon="139.415601">
<ele>19.6</ele>
<time>2026-03-26T23:35:41Z</time>
<speed>5.8</speed>
</trkpt>
<trkpt lat="35.886349" lon="139.415467">
<ele>19.8</ele>
<time>2026-03-26T23:35:45Z</time>
<speed>5.5</speed>
</trkpt>
<trkpt lat="35.886257" lon="139.415423">
<ele>20.0</ele>
<time>2026-03-26T23:35:47Z</time>
<speed>5.5</speed>
</trkpt>
<trkpt lat="35.886070" lon="139.415343">
<ele>20.2</ele>
<time>2026-03-26T23:35:51Z</time>
<speed>5.5</speed>
</trkpt>
<trkpt lat="35.885981" lon="139.415291">
<ele>20.2</ele>
<time>2026-03-26T23:35:53Z</time>
<speed>5.4</speed>
</trkpt>
<trkpt lat="35.885817" lon="139.415162">
<ele>20.6</ele>
<time>2026-03-26T23:35:57Z</time>
<speed>5.7</speed>
</trkpt>
<trkpt lat="35.885733" lon="139.415089">
<ele>21.0</ele>
<time>2026-03-26T23:35:59Z</time>
<speed>5.6</speed>
</trkpt>
<trkpt lat="35.885492" lon="139.414869">
<ele>22.2</ele>
<time>2026-03-26T23:36:05Z</time>
<speed>5.3</speed>
</trkpt>
<trkpt lat="35.885454" lon="139.414834">
<ele>22.4</ele>
<time>2026-03-26T23:36:06Z</time>
<speed>5.7</speed>
</trkpt>
<trkpt lat="35.885130" lon="139.414519">
<ele>22.6</ele>
<time>2026-03-26T23:36:14Z</time>
<speed>6.0</speed>
</trkpt>
<trkpt lat="35.884827" lon="139.414242">
<ele>22.8</ele>
<time>2026-03-26T23:36:21Z</time>
<speed>6.0</speed>
</trkpt>
<trkpt lat="35.884529" lon="139.414086">
<ele>22.8</ele>
<time>2026-03-26T23:36:27Z</time>
<speed>5.5</speed>
</trkpt>
<trkpt lat="35.884241" lon="139.414004">
<ele>22.8</ele>
<time>2026-03-26T23:36:33Z</time>
<speed>5.2</speed>
</trkpt>
<trkpt lat="35.883885" lon="139.413860">
<ele>23.0</ele>
<time>2026-03-26T23:36:41Z</time>
<speed>4.2</speed>
</trkpt>
<trkpt lat="35.883682" lon="139.413741">
<ele>23.0</ele>
<time>2026-03-26T23:36:47Z</time>
<speed>3.6</speed>
</trkpt>
<trkpt lat="35.883633" lon="139.413689">
<ele>23.2</ele>
<time>2026-03-26T23:36:49Z</time>
<speed>4.1</speed>
</trkpt>
<trkpt lat="35.883541" lon="139.413615">
<ele>23.2</ele>
<time>2026-03-26T23:36:52Z</time>
<speed>5.0</speed>
</trkpt>
<trkpt lat="35.883431" lon="139.413516">
<ele>23.4</ele>
<time>2026-03-26T23:36:55Z</time>
<speed>5.1</speed>
</trkpt>
<trkpt lat="35.883360" lon="139.413443">
<ele>23.4</ele>
<time>2026-03-26T23:36:57Z</time>
<speed>5.5</speed>
</trkpt>
<trkpt lat="35.883285" lon="139.413365">
<ele>23.4</ele>
<time>2026-03-26T23:36:59Z</time>
<speed>5.3</speed>
</trkpt>
<trkpt lat="35.883134" lon="139.413219">
<ele>23.4</ele>
<time>2026-03-26T23:37:03Z</time>
<speed>5.4</speed>
</trkpt>
<trkpt lat="35.882818" lon="139.412936">
<ele>23.6</ele>
<time>2026-03-26T23:37:11Z</time>
<speed>5.5</speed>
</trkpt>
<trkpt lat="35.882662" lon="139.412788">
<ele>23.6</ele>
<time>2026-03-26T23:37:15Z</time>
<speed>5.5</speed>
</trkpt>
<trkpt lat="35.882585" lon="139.412711">
<ele>23.6</ele>
<time>2026-03-26T23:37:17Z</time>
<speed>5.5</speed>
</trkpt>
<trkpt lat="35.882354" lon="139.412479">
<ele>23.8</ele>
<time>2026-03-26T23:37:23Z</time>
<speed>5.4</speed>
</trkpt>
<trkpt lat="35.882122" lon="139.412260">
<ele>24.0</ele>
<time>2026-03-26T23:37:29Z</time>
<speed>5.8</speed>
</trkpt>
<trkpt lat="35.881878" lon="139.412018">
<ele>24.0</ele>
<time>2026-03-26T23:37:35Z</time>
<speed>5.7</speed>
</trkpt>
<trkpt lat="35.881671" lon="139.411833">
<ele>24.2</ele>
<time>2026-03-26T23:37:40Z</time>
<speed>5.8</speed>
</trkpt>
<trkpt lat="35.881581" lon="139.411767">
<ele>24.2</ele>
<time>2026-03-26T23:37:42Z</time>
<speed>5.5</speed>
</trkpt>
<trkpt lat="35.881363" lon="139.411623">
<ele>24.2</ele>
<time>2026-03-26T23:37:47Z</time>
<speed>5.4</speed>
</trkpt>
<trkpt lat="35.881179" lon="139.411541">
<ele>24.4</ele>
<time>2026-03-26T23:37:51Z</time>
<speed>5.4</speed>
</trkpt>
<trkpt lat="35.881135" lon="139.411516">
<ele>24.4</ele>
<time>2026-03-26T23:37:52Z</time>
<speed>5.7</speed>
</trkpt>
<trkpt lat="35.880943" lon="139.411424">
<ele>24.4</ele>
<time>2026-03-26T23:37:56Z</time>
<speed>5.9</speed>
</trkpt>
<trkpt lat="35.880539" lon="139.411266">
<ele>24.6</ele>
<time>2026-03-26T23:38:04Z</time>
<speed>5.6</speed>
</trkpt>
<trkpt lat="35.880248" lon="139.411165">
<ele>24.6</ele>
<time>2026-03-26T23:38:10Z</time>
<speed>3.5</speed>
</trkpt>
<trkpt lat="35.880125" lon="139.411135">
<ele>24.6</ele>
<time>2026-03-26T23:38:14Z</time>
<speed>0.1</speed>
</trkpt>
<trkpt lat="35.879945" lon="139.411040">
<ele>24.8</ele>
<time>2026-03-26T23:41:41Z</time>
<speed>1.9</speed>
</trkpt>
<trkpt lat="35.879929" lon="139.411032">
<ele>24.8</ele>
<time>2026-03-26T23:41:42Z</time>
<speed>2.4</speed>
</trkpt>
<trkpt lat="35.879825" lon="139.411000">
<ele>24.8</ele>
<time>2026-03-26T23:41:47Z</time>
<speed>4.1</speed>
</trkpt>
<trkpt lat="35.879650" lon="139.410926">
<ele>24.8</ele>
<time>2026-03-26T23:41:52Z</time>
<speed>4.5</speed>
</trkpt>
<trkpt lat="35.879418" lon="139.410829">
<ele>24.8</ele>
<time>2026-03-26T23:41:58Z</time>
<speed>4.5</speed>
</trkpt>
<trkpt lat="35.879191" lon="139.410721">
<ele>24.8</ele>
<time>2026-03-26T23:42:04Z</time>
<speed>4.8</speed>
</trkpt>
<trkpt lat="35.878917" lon="139.410558">
<ele>25.0</ele>
<time>2026-03-26T23:42:11Z</time>
<speed>5.1</speed>
</trkpt>
<trkpt lat="35.878671" lon="139.410403">
<ele>25.0</ele>
<time>2026-03-26T23:42:17Z</time>
<speed>4.6</speed>
</trkpt>
<trkpt lat="35.878404" lon="139.410262">
<ele>25.0</ele>
<time>2026-03-26T23:42:24Z</time>
<speed>6.3</speed>
</trkpt>
<trkpt lat="35.878234" lon="139.410236">
<ele>25.2</ele>
<time>2026-03-26T23:42:27Z</time>
<speed>6.8</speed>
</trkpt>
<trkpt lat="35.878173" lon="139.410237">
<ele>25.2</ele>
<time>2026-03-26T23:42:28Z</time>
<speed>6.7</speed>
</trkpt>
<trkpt lat="35.878113" lon="139.410238">
<ele>25.2</ele>
<time>2026-03-26T23:42:29Z</time>
<speed>5.8</speed>
</trkpt>
<trkpt lat="35.877799" lon="139.410231">
<ele>25.4</ele>
<time>2026-03-26T23:42:35Z</time>
<speed>6.1</speed>
</trkpt>
<trkpt lat="35.877471" lon="139.410216">
<ele>25.4</ele>
<time>2026-03-26T23:42:41Z</time>
<speed>5.7</speed>
</trkpt>
<trkpt lat="35.877014" lon="139.410308">
<ele>25.6</ele>
<time>2026-03-26T23:42:50Z</time>
<speed>5.5</speed>
</trkpt>
<trkpt lat="35.876620" lon="139.410320">
<ele>25.6</ele>
<time>2026-03-26T23:42:58Z</time>
<speed>4.7</speed>
</trkpt>
<trkpt lat="35.876281" lon="139.410319">
<ele>26.0</ele>
<time>2026-03-26T23:43:06Z</time>
<speed>3.6</speed>
</trkpt>
<trkpt lat="35.876184" lon="139.410337">
<ele>26.0</ele>
<time>2026-03-26T23:43:09Z</time>
<speed>3.3</speed>
</trkpt>
<trkpt lat="35.876169" lon="139.410368">
<ele>26.0</ele>
<time>2026-03-26T23:43:10Z</time>
<speed>3.9</speed>
</trkpt>
<trkpt lat="35.876176" lon="139.410496">
<ele>26.0</ele>
<time>2026-03-26T23:43:13Z</time>
<speed>4.3</speed>
</trkpt>
<trkpt lat="35.876178" lon="139.410736">
<ele>26.0</ele>
<time>2026-03-26T23:43:18Z</time>
<speed>2.8</speed>
</trkpt>
<trkpt lat="35.876165" lon="139.410763">
<ele>25.8</ele>
<time>2026-03-26T23:43:19Z</time>
<speed>2.1</speed>
</trkpt>
<trkpt lat="35.876127" lon="139.410764">
<ele>25.4</ele>
<time>2026-03-26T23:43:21Z</time>
<speed>3.4</speed>
</trkpt>
<trkpt lat="35.876066" lon="139.410755">
<ele>24.8</ele>
<time>2026-03-26T23:43:23Z</time>
<speed>4.1</speed>
</trkpt>
<trkpt lat="35.875994" lon="139.410740">
<ele>24.2</ele>
<time>2026-03-26T23:43:25Z</time>
<speed>4.7</speed>
</trkpt>
<trkpt lat="35.875954" lon="139.410724">
<ele>24.0</ele>
<time>2026-03-26T23:43:26Z</time>
<speed>5.2</speed>
</trkpt>
<trkpt lat="35.875729" lon="139.410654">
<ele>23.6</ele>
<time>2026-03-26T23:43:31Z</time>
<speed>4.8</speed>
</trkpt>
<trkpt lat="35.875562" lon="139.410605">
<ele>23.4</ele>
<time>2026-03-26T23:43:35Z</time>
<speed>5.2</speed>
</trkpt>
<trkpt lat="35.875475" lon="139.410565">
<ele>23.4</ele>
<time>2026-03-26T23:43:37Z</time>
<speed>5.3</speed>
</trkpt>
<trkpt lat="35.875128" lon="139.410361">
<ele>23.4</ele>
<time>2026-03-26T23:43:45Z</time>
<speed>5.2</speed>
</trkpt>
<trkpt lat="35.875051" lon="139.410296">
<ele>23.4</ele>
<time>2026-03-26T23:43:47Z</time>
<speed>5.1</speed>
</trkpt>
<trkpt lat="35.874983" lon="139.410221">
<ele>23.4</ele>
<time>2026-03-26T23:43:49Z</time>
<speed>4.8</speed>
</trkpt>
<trkpt lat="35.874919" lon="139.410149">
<ele>24.0</ele>
<time>2026-03-26T23:43:51Z</time>
<speed>4.5</speed>
</trkpt>
<trkpt lat="35.874795" lon="139.409955">
<ele>25.0</ele>
<time>2026-03-26T23:43:56Z</time>
<speed>5.0</speed>
</trkpt>
<trkpt lat="35.874732" lon="139.409877">
<ele>25.6</ele>
<time>2026-03-26T23:43:58Z</time>
<speed>5.3</speed>
</trkpt>
<trkpt lat="35.874628" lon="139.409757">
<ele>26.2</ele>
<time>2026-03-26T23:44:01Z</time>
<speed>4.9</speed>
</trkpt>
<trkpt lat="35.874597" lon="139.409719">
<ele>26.4</ele>
<time>2026-03-26T23:44:02Z</time>
<speed>5.1</speed>
</trkpt>
<trkpt lat="35.874430" lon="139.409527">
<ele>26.8</ele>
<time>2026-03-26T23:44:07Z</time>
<speed>5.4</speed>
</trkpt>
<trkpt lat="35.874390" lon="139.409493">
<ele>27.0</ele>
<time>2026-03-26T23:44:08Z</time>
<speed>5.6</speed>
</trkpt>
<trkpt lat="35.874113" lon="139.409222">
<ele>27.2</ele>
<time>2026-03-26T23:44:15Z</time>
<speed>5.7</speed>
</trkpt>
<trkpt lat="35.873983" lon="139.409123">
<ele>27.4</ele>
<time>2026-03-26T23:44:18Z</time>
<speed>5.3</speed>
</trkpt>
<trkpt lat="35.873887" lon="139.409116">
<ele>27.4</ele>
<time>2026-03-26T23:44:20Z</time>
<speed>5.3</speed>
</trkpt>
<trkpt lat="35.873695" lon="139.409101">
<ele>27.6</ele>
<time>2026-03-26T23:44:24Z</time>
<speed>5.6</speed>
</trkpt>
<trkpt lat="35.873606" lon="139.409044">
<ele>27.6</ele>
<time>2026-03-26T23:44:26Z</time>
<speed>5.7</speed>
</trkpt>
<trkpt lat="35.873259" lon="139.408781">
<ele>27.6</ele>
<time>2026-03-26T23:44:34Z</time>
<speed>5.7</speed>
</trkpt>
<trkpt lat="35.872956" lon="139.408542">
<ele>28.0</ele>
<time>2026-03-26T23:44:41Z</time>
<speed>5.9</speed>
</trkpt>
<trkpt lat="35.872642" lon="139.408299">
<ele>28.2</ele>
<time>2026-03-26T23:44:48Z</time>
<speed>6.0</speed>
</trkpt>
<trkpt lat="35.872335" lon="139.408028">
<ele>28.2</ele>
<time>2026-03-26T23:44:55Z</time>
<speed>5.6</speed>
</trkpt>
<trkpt lat="35.872295" lon="139.407990">
<ele>28.2</ele>
<time>2026-03-26T23:44:56Z</time>
<speed>5.6</speed>
</trkpt>
<trkpt lat="35.872066" lon="139.407746">
<ele>28.2</ele>
<time>2026-03-26T23:45:02Z</time>
<speed>5.9</speed>
</trkpt>
<trkpt lat="35.872030" lon="139.407698">
<ele>28.4</ele>
<time>2026-03-26T23:45:03Z</time>
<speed>6.0</speed>
</trkpt>
<trkpt lat="35.871910" lon="139.407565">
<ele>28.4</ele>
<time>2026-03-26T23:45:06Z</time>
<speed>5.9</speed>
</trkpt>
<trkpt lat="35.871870" lon="139.407522">
<ele>28.4</ele>
<time>2026-03-26T23:45:07Z</time>
<speed>6.0</speed>
</trkpt>
<trkpt lat="35.871600" lon="139.407200">
<ele>28.6</ele>
<time>2026-03-26T23:45:14Z</time>
<speed>6.2</speed>
</trkpt>
<trkpt lat="35.871247" lon="139.406865">
<ele>28.8</ele>
<time>2026-03-26T23:45:22Z</time>
<speed>5.7</speed>
</trkpt>
<trkpt lat="35.870870" lon="139.406539">
<ele>29.0</ele>
<time>2026-03-26T23:45:31Z</time>
<speed>6.1</speed>
</trkpt>
<trkpt lat="35.870532" lon="139.406313">
<ele>29.0</ele>
<time>2026-03-26T23:45:38Z</time>
<speed>5.5</speed>
</trkpt>
<trkpt lat="35.870221" lon="139.406134">
<ele>29.0</ele>
<time>2026-03-26T23:45:45Z</time>
<speed>4.6</speed>
</trkpt>
<trkpt lat="35.869949" lon="139.406016">
<ele>29.2</ele>
<time>2026-03-26T23:45:52Z</time>
<speed>5.1</speed>
</trkpt>
<trkpt lat="35.869777" lon="139.406093">
<ele>29.2</ele>
<time>2026-03-26T23:45:56Z</time>
<speed>5.5</speed>
</trkpt>
<trkpt lat="35.869728" lon="139.406103">
<ele>29.0</ele>
<time>2026-03-26T23:45:57Z</time>
<speed>5.6</speed>
</trkpt>
<trkpt lat="35.869632" lon="139.406068">
<ele>29.0</ele>
<time>2026-03-26T23:45:59Z</time>
<speed>5.6</speed>
</trkpt>
<trkpt lat="35.869342" lon="139.405957">
<ele>28.6</ele>
<time>2026-03-26T23:46:05Z</time>
<speed>5.0</speed>
</trkpt>
<trkpt lat="35.869297" lon="139.405953">
<ele>28.4</ele>
<time>2026-03-26T23:46:06Z</time>
<speed>5.5</speed>
</trkpt>
<trkpt lat="35.869098" lon="139.405935">
<ele>28.4</ele>
<time>2026-03-26T23:46:10Z</time>
<speed>5.6</speed>
</trkpt>
<trkpt lat="35.868795" lon="139.405931">
<ele>28.4</ele>
<time>2026-03-26T23:46:16Z</time>
<speed>5.0</speed>
</trkpt>
<trkpt lat="35.868660" lon="139.405931">
<ele>28.6</ele>
<time>2026-03-26T23:46:19Z</time>
<speed>5.4</speed>
</trkpt>
<trkpt lat="35.868520" lon="139.405883">
<ele>28.8</ele>
<time>2026-03-26T23:46:22Z</time>
<speed>5.6</speed>
</trkpt>
<trkpt lat="35.868291" lon="139.405752">
<ele>28.8</ele>
<time>2026-03-26T23:46:27Z</time>
<speed>5.8</speed>
</trkpt>
<trkpt lat="35.867841" lon="139.405575">
<ele>29.2</ele>
<time>2026-03-26T23:46:36Z</time>
<speed>5.7</speed>
</trkpt>
<trkpt lat="35.867503" lon="139.405427">
<ele>29.4</ele>
<time>2026-03-26T23:46:43Z</time>
<speed>5.6</speed>
</trkpt>
<trkpt lat="35.867457" lon="139.405403">
<ele>29.4</ele>
<time>2026-03-26T23:46:44Z</time>
<speed>5.3</speed>
</trkpt>
<trkpt lat="35.867235" lon="139.405303">
<ele>29.4</ele>
<time>2026-03-26T23:46:49Z</time>
<speed>5.2</speed>
</trkpt>
<trkpt lat="35.867051" lon="139.405343">
<ele>29.4</ele>
<time>2026-03-26T23:46:53Z</time>
<speed>5.2</speed>
</trkpt>
<trkpt lat="35.866932" lon="139.405522">
<ele>29.4</ele>
<time>2026-03-26T23:46:57Z</time>
<speed>4.8</speed>
</trkpt>
<trkpt lat="35.866901" lon="139.405621">
<ele>29.4</ele>
<time>2026-03-26T23:46:59Z</time>
<speed>4.5</speed>
</trkpt>
<trkpt lat="35.866892" lon="139.405670">
<ele>29.2</ele>
<time>2026-03-26T23:47:00Z</time>
<speed>5.0</speed>
</trkpt>
<trkpt lat="35.866858" lon="139.405831">
<ele>28.6</ele>
<time>2026-03-26T23:47:03Z</time>
<speed>4.3</speed>
</trkpt>
<trkpt lat="35.866806" lon="139.405958">
<ele>28.6</ele>
<time>2026-03-26T23:47:06Z</time>
<speed>4.2</speed>
</trkpt>
<trkpt lat="35.866771" lon="139.405975">
<ele>28.6</ele>
<time>2026-03-26T23:47:07Z</time>
<speed>4.4</speed>
</trkpt>
<trkpt lat="35.866657" lon="139.405938">
<ele>28.6</ele>
<time>2026-03-26T23:47:10Z</time>
<speed>5.4</speed>
</trkpt>
<trkpt lat="35.866329" lon="139.405843">
<ele>28.8</ele>
<time>2026-03-26T23:47:17Z</time>
<speed>5.7</speed>
</trkpt>
<trkpt lat="35.866079" lon="139.405769">
<ele>28.8</ele>
<time>2026-03-26T23:47:22Z</time>
<speed>6.0</speed>
</trkpt>
<trkpt lat="35.865971" lon="139.405759">
<ele>28.8</ele>
<time>2026-03-26T23:47:24Z</time>
<speed>6.2</speed>
</trkpt>
<trkpt lat="35.865863" lon="139.405726">
<ele>28.8</ele>
<time>2026-03-26T23:47:26Z</time>
<speed>6.3</speed>
</trkpt>
<trkpt lat="35.865646" lon="139.405647">
<ele>28.8</ele>
<time>2026-03-26T23:47:30Z</time>
<speed>6.3</speed>
</trkpt>
<trkpt lat="35.865101" lon="139.405465">
<ele>28.6</ele>
<time>2026-03-26T23:47:40Z</time>
<speed>6.0</speed>
</trkpt>
<trkpt lat="35.865047" lon="139.405464">
<ele>28.6</ele>
<time>2026-03-26T23:47:41Z</time>
<speed>6.4</speed>
</trkpt>
<trkpt lat="35.864876" lon="139.405490">
<ele>28.6</ele>
<time>2026-03-26T23:47:44Z</time>
<speed>6.5</speed>
</trkpt>
<trkpt lat="35.864701" lon="139.405520">
<ele>28.6</ele>
<time>2026-03-26T23:47:47Z</time>
<speed>6.4</speed>
</trkpt>
<trkpt lat="35.864590" lon="139.405483">
<ele>28.6</ele>
<time>2026-03-26T23:47:49Z</time>
<speed>4.8</speed>
</trkpt>
<trkpt lat="35.864435" lon="139.405387">
<ele>28.6</ele>
<time>2026-03-26T23:47:53Z</time>
<speed>3.7</speed>
</trkpt>
<trkpt lat="35.864441" lon="139.405347">
<ele>28.6</ele>
<time>2026-03-26T23:47:54Z</time>
<speed>3.4</speed>
</trkpt>
<trkpt lat="35.864441" lon="139.405235">
<ele>28.6</ele>
<time>2026-03-26T23:47:57Z</time>
<speed>5.0</speed>
</trkpt>
<trkpt lat="35.864336" lon="139.405128">
<ele>28.8</ele>
<time>2026-03-26T23:48:00Z</time>
<speed>5.1</speed>
</trkpt>
<trkpt lat="35.864298" lon="139.405096">
<ele>28.8</ele>
<time>2026-03-26T23:48:01Z</time>
<speed>3.7</speed>
</trkpt>
<trkpt lat="35.864175" lon="139.404961">
<ele>28.8</ele>
<time>2026-03-26T23:48:06Z</time>
<speed>2.2</speed>
</trkpt>
<trkpt lat="35.864087" lon="139.404908">
<ele>30.2</ele>
<time>2026-03-26T23:48:11Z</time>
<speed>3.9</speed>
</trkpt>
<trkpt lat="35.864052" lon="139.404912">
<ele>30.8</ele>
<time>2026-03-26T23:48:12Z</time>
<speed>4.0</speed>
</trkpt>
<trkpt lat="35.863982" lon="139.404889">
<ele>31.6</ele>
<time>2026-03-26T23:48:14Z</time>
<speed>4.1</speed>
</trkpt>
<trkpt lat="35.863911" lon="139.404864">
<ele>32.2</ele>
<time>2026-03-26T23:48:16Z</time>
<speed>4.1</speed>
</trkpt>
<trkpt lat="35.863676" lon="139.404736">
<ele>32.4</ele>
<time>2026-03-26T23:48:23Z</time>
<speed>3.8</speed>
</trkpt>
<trkpt lat="35.863423" lon="139.404604">
<ele>32.4</ele>
<time>2026-03-26T23:48:31Z</time>
<speed>4.6</speed>
</trkpt>
<trkpt lat="35.863116" lon="139.404448">
<ele>32.4</ele>
<time>2026-03-26T23:48:39Z</time>
<speed>4.8</speed>
</trkpt>
<trkpt lat="35.862880" lon="139.404315">
<ele>32.6</ele>
<time>2026-03-26T23:48:45Z</time>
<speed>5.1</speed>
</trkpt>
<trkpt lat="35.862755" lon="139.404243">
<ele>32.6</ele>
<time>2026-03-26T23:48:48Z</time>
<speed>5.0</speed>
</trkpt>
<trkpt lat="35.862466" lon="139.404090">
<ele>32.8</ele>
<time>2026-03-26T23:48:55Z</time>
<speed>4.7</speed>
</trkpt>
<trkpt lat="35.862154" lon="139.403927">
<ele>32.8</ele>
<time>2026-03-26T23:49:03Z</time>
<speed>4.8</speed>
</trkpt>
<trkpt lat="35.861914" lon="139.403809">
<ele>33.0</ele>
<time>2026-03-26T23:49:09Z</time>
<speed>5.3</speed>
</trkpt>
<trkpt lat="35.861773" lon="139.403771">
<ele>33.0</ele>
<time>2026-03-26T23:49:12Z</time>
<speed>6.1</speed>
</trkpt>
<trkpt lat="35.861611" lon="139.403742">
<ele>33.0</ele>
<time>2026-03-26T23:49:15Z</time>
<speed>7.2</speed>
</trkpt>
<trkpt lat="35.861360" lon="139.403663">
<ele>33.0</ele>
<time>2026-03-26T23:49:19Z</time>
<speed>8.0</speed>
</trkpt>
<trkpt lat="35.861219" lon="139.403628">
<ele>32.8</ele>
<time>2026-03-26T23:49:21Z</time>
<speed>7.7</speed>
</trkpt>
<trkpt lat="35.860817" lon="139.403503">
<ele>31.4</ele>
<time>2026-03-26T23:49:27Z</time>
<speed>7.1</speed>
</trkpt>
<trkpt lat="35.860757" lon="139.403477">
<ele>30.6</ele>
<time>2026-03-26T23:49:28Z</time>
<speed>6.6</speed>
</trkpt>
<trkpt lat="35.860702" lon="139.403449">
<ele>30.2</ele>
<time>2026-03-26T23:49:29Z</time>
<speed>6.7</speed>
</trkpt>
<trkpt lat="35.860546" lon="139.403339">
<ele>29.8</ele>
<time>2026-03-26T23:49:32Z</time>
<speed>6.6</speed>
</trkpt>
<trkpt lat="35.860498" lon="139.403295">
<ele>29.6</ele>
<time>2026-03-26T23:49:33Z</time>
<speed>6.5</speed>
</trkpt>
<trkpt lat="35.860204" lon="139.403065">
<ele>29.6</ele>
<time>2026-03-26T23:49:39Z</time>
<speed>5.7</speed>
</trkpt>
<trkpt lat="35.860162" lon="139.403028">
<ele>29.6</ele>
<time>2026-03-26T23:49:40Z</time>
<speed>5.4</speed>
</trkpt>
<trkpt lat="35.859934" lon="139.402807">
<ele>29.8</ele>
<time>2026-03-26T23:49:46Z</time>
<speed>5.6</speed>
</trkpt>
<trkpt lat="35.859896" lon="139.402767">
<ele>29.8</ele>
<time>2026-03-26T23:49:47Z</time>
<speed>5.6</speed>
</trkpt>
<trkpt lat="35.859862" lon="139.402721">
<ele>30.0</ele>
<time>2026-03-26T23:49:48Z</time>
<speed>5.4</speed>
</trkpt>
<trkpt lat="35.859746" lon="139.402610">
<ele>30.2</ele>
<time>2026-03-26T23:49:51Z</time>
<speed>5.3</speed>
</trkpt>
<trkpt lat="35.859707" lon="139.402577">
<ele>30.8</ele>
<time>2026-03-26T23:49:52Z</time>
<speed>5.4</speed>
</trkpt>
<trkpt lat="35.859671" lon="139.402537">
<ele>31.0</ele>
<time>2026-03-26T23:49:53Z</time>
<speed>5.6</speed>
</trkpt>
<trkpt lat="35.859638" lon="139.402490">
<ele>31.4</ele>
<time>2026-03-26T23:49:54Z</time>
<speed>6.0</speed>
</trkpt>
<trkpt lat="35.859530" lon="139.402343">
<ele>32.2</ele>
<time>2026-03-26T23:49:57Z</time>
<speed>5.8</speed>
</trkpt>
<trkpt lat="35.859488" lon="139.402304">
<ele>32.4</ele>
<time>2026-03-26T23:49:58Z</time>
<speed>5.7</speed>
</trkpt>
<trkpt lat="35.859279" lon="139.402121">
<ele>33.6</ele>
<time>2026-03-26T23:50:03Z</time>
<speed>5.7</speed>
</trkpt>
<trkpt lat="35.858942" lon="139.401830">
<ele>33.8</ele>
<time>2026-03-26T23:50:11Z</time>
<speed>5.8</speed>
</trkpt>
<trkpt lat="35.858603" lon="139.401530">
<ele>34.0</ele>
<time>2026-03-26T23:50:19Z</time>
<speed>5.6</speed>
</trkpt>
<trkpt lat="35.858317" lon="139.401272">
<ele>34.2</ele>
<time>2026-03-26T23:50:26Z</time>
<speed>4.6</speed>
</trkpt>
<trkpt lat="35.858101" lon="139.401035">
<ele>34.2</ele>
<time>2026-03-26T23:50:33Z</time>
<speed>3.9</speed>
</trkpt>
<trkpt lat="35.857946" lon="139.400937">
<ele>34.2</ele>
<time>2026-03-26T23:50:38Z</time>
<speed>5.2</speed>
</trkpt>
<trkpt lat="35.857807" lon="139.400918">
<ele>34.2</ele>
<time>2026-03-26T23:50:41Z</time>
<speed>5.2</speed>
</trkpt>
<trkpt lat="35.857770" lon="139.400882">
<ele>34.2</ele>
<time>2026-03-26T23:50:42Z</time>
<speed>5.4</speed>
</trkpt>
<trkpt lat="35.857711" lon="139.400719">
<ele>34.2</ele>
<time>2026-03-26T23:50:45Z</time>
<speed>5.2</speed>
</trkpt>
<trkpt lat="35.857681" lon="139.400610">
<ele>33.8</ele>
<time>2026-03-26T23:50:47Z</time>
<speed>4.5</speed>
</trkpt>
<trkpt lat="35.857605" lon="139.400377">
<ele>33.6</ele>
<time>2026-03-26T23:50:52Z</time>
<speed>4.4</speed>
</trkpt>
<trkpt lat="35.857480" lon="139.400070">
<ele>34.0</ele>
<time>2026-03-26T23:50:59Z</time>
<speed>4.7</speed>
</trkpt>
<trkpt lat="35.857464" lon="139.400022">
<ele>34.2</ele>
<time>2026-03-26T23:51:00Z</time>
<speed>5.2</speed>
</trkpt>
<trkpt lat="35.857432" lon="139.399914">
<ele>34.6</ele>
<time>2026-03-26T23:51:02Z</time>
<speed>5.6</speed>
</trkpt>
<trkpt lat="35.857408" lon="139.399860">
<ele>34.8</ele>
<time>2026-03-26T23:51:03Z</time>
<speed>5.7</speed>
</trkpt>
<trkpt lat="35.857347" lon="139.399759">
<ele>35.4</ele>
<time>2026-03-26T23:51:05Z</time>
<speed>5.4</speed>
</trkpt>
<trkpt lat="35.857317" lon="139.399712">
<ele>35.6</ele>
<time>2026-03-26T23:51:06Z</time>
<speed>5.4</speed>
</trkpt>
<trkpt lat="35.857118" lon="139.399373">
<ele>36.2</ele>
<time>2026-03-26T23:51:13Z</time>
<speed>5.6</speed>
</trkpt>
<trkpt lat="35.857008" lon="139.399163">
<ele>36.4</ele>
<time>2026-03-26T23:51:17Z</time>
<speed>5.7</speed>
</trkpt>
<trkpt lat="35.856945" lon="139.398989">
<ele>36.4</ele>
<time>2026-03-26T23:51:20Z</time>
<speed>5.4</speed>
</trkpt>
<trkpt lat="35.856923" lon="139.398872">
<ele>36.4</ele>
<time>2026-03-26T23:51:22Z</time>
<speed>5.4</speed>
</trkpt>
<trkpt lat="35.856904" lon="139.398695">
<ele>36.4</ele>
<time>2026-03-26T23:51:25Z</time>
<speed>5.0</speed>
</trkpt>
<trkpt lat="35.856855" lon="139.398308">
<ele>36.6</ele>
<time>2026-03-26T23:51:32Z</time>
<speed>5.5</speed>
</trkpt>
<trkpt lat="35.856786" lon="139.397886">
<ele>36.6</ele>
<time>2026-03-26T23:51:39Z</time>
<speed>5.8</speed>
</trkpt>
<trkpt lat="35.856765" lon="139.397503">
<ele>36.4</ele>
<time>2026-03-26T23:51:45Z</time>
<speed>6.2</speed>
</trkpt>
<trkpt lat="35.856759" lon="139.397024">
<ele>36.4</ele>
<time>2026-03-26T23:51:52Z</time>
<speed>6.2</speed>
</trkpt>
<trkpt lat="35.856842" lon="139.396485">
<ele>36.4</ele>
<time>2026-03-26T23:52:00Z</time>
<speed>5.8</speed>
</trkpt>
<trkpt lat="35.856865" lon="139.396359">
<ele>36.6</ele>
<time>2026-03-26T23:52:02Z</time>
<speed>5.7</speed>
</trkpt>
<trkpt lat="35.856821" lon="139.396244">
<ele>36.6</ele>
<time>2026-03-26T23:52:04Z</time>
<speed>5.9</speed>
</trkpt>
<trkpt lat="35.856781" lon="139.396122">
<ele>36.6</ele>
<time>2026-03-26T23:52:06Z</time>
<speed>6.3</speed>
</trkpt>
<trkpt lat="35.856783" lon="139.395913">
<ele>36.6</ele>
<time>2026-03-26T23:52:09Z</time>
<speed>6.1</speed>
</trkpt>
<trkpt lat="35.856799" lon="139.395779">
<ele>36.6</ele>
<time>2026-03-26T23:52:11Z</time>
<speed>5.8</speed>
</trkpt>
<trkpt lat="35.856850" lon="139.395464">
<ele>36.6</ele>
<time>2026-03-26T23:52:16Z</time>
<speed>5.9</speed>
</trkpt>
<trkpt lat="35.856848" lon="139.395333">
<ele>36.6</ele>
<time>2026-03-26T23:52:18Z</time>
<speed>6.3</speed>
</trkpt>
<trkpt lat="35.856820" lon="139.395127">
<ele>36.6</ele>
<time>2026-03-26T23:52:21Z</time>
<speed>5.5</speed>
</trkpt>
<trkpt lat="35.856821" lon="139.395006">
<ele>36.6</ele>
<time>2026-03-26T23:52:23Z</time>
<speed>5.1</speed>
</trkpt>
<trkpt lat="35.856813" lon="139.394894">
<ele>36.6</ele>
<time>2026-03-26T23:52:25Z</time>
<speed>5.1</speed>
</trkpt>
<trkpt lat="35.856725" lon="139.394630">
<ele>36.2</ele>
<time>2026-03-26T23:52:30Z</time>
<speed>5.4</speed>
</trkpt>
<trkpt lat="35.856699" lon="139.394579">
<ele>36.2</ele>
<time>2026-03-26T23:52:31Z</time>
<speed>5.5</speed>
</trkpt>
<trkpt lat="35.856618" lon="139.394289">
<ele>36.2</ele>
<time>2026-03-26T23:52:36Z</time>
<speed>5.9</speed>
</trkpt>
<trkpt lat="35.856553" lon="139.394040">
<ele>36.8</ele>
<time>2026-03-26T23:52:40Z</time>
<speed>5.6</speed>
</trkpt>
<trkpt lat="35.856484" lon="139.393739">
<ele>37.4</ele>
<time>2026-03-26T23:52:45Z</time>
<speed>5.8</speed>
</trkpt>
<trkpt lat="35.856356" lon="139.393247">
<ele>37.6</ele>
<time>2026-03-26T23:52:53Z</time>
<speed>5.7</speed>
</trkpt>
<trkpt lat="35.856318" lon="139.393130">
<ele>37.6</ele>
<time>2026-03-26T23:52:55Z</time>
<speed>5.7</speed>
</trkpt>
<trkpt lat="35.856259" lon="139.392889">
<ele>37.8</ele>
<time>2026-03-26T23:52:59Z</time>
<speed>5.3</speed>
</trkpt>
<trkpt lat="35.856231" lon="139.392716">
<ele>37.8</ele>
<time>2026-03-26T23:53:02Z</time>
<speed>5.4</speed>
</trkpt>
<trkpt lat="35.856184" lon="139.392485">
<ele>38.0</ele>
<time>2026-03-26T23:53:06Z</time>
<speed>5.4</speed>
</trkpt>
<trkpt lat="35.856166" lon="139.392429">
<ele>38.0</ele>
<time>2026-03-26T23:53:07Z</time>
<speed>5.8</speed>
</trkpt>
<trkpt lat="35.856031" lon="139.392333">
<ele>38.0</ele>
<time>2026-03-26T23:53:10Z</time>
<speed>6.6</speed>
</trkpt>
<trkpt lat="35.855914" lon="139.392311">
<ele>38.0</ele>
<time>2026-03-26T23:53:12Z</time>
<speed>6.7</speed>
</trkpt>
<trkpt lat="35.855859" lon="139.392282">
<ele>38.0</ele>
<time>2026-03-26T23:53:13Z</time>
<speed>6.4</speed>
</trkpt>
<trkpt lat="35.855821" lon="139.392229">
<ele>37.8</ele>
<time>2026-03-26T23:53:14Z</time>
<speed>5.5</speed>
</trkpt>
<trkpt lat="35.855764" lon="139.392060">
<ele>37.6</ele>
<time>2026-03-26T23:53:17Z</time>
<speed>3.2</speed>
</trkpt>
<trkpt lat="35.855712" lon="139.391897">
<ele>37.4</ele>
<time>2026-03-26T23:53:22Z</time>
<speed>1.9</speed>
</trkpt>
<trkpt lat="35.855680" lon="139.391799">
<ele>37.4</ele>
<time>2026-03-26T23:53:27Z</time>
<speed>4.7</speed>
</trkpt>
<trkpt lat="35.855600" lon="139.391557">
<ele>38.0</ele>
<time>2026-03-26T23:53:32Z</time>
<speed>5.4</speed>
</trkpt>
<trkpt lat="35.855475" lon="139.391170">
<ele>38.2</ele>
<time>2026-03-26T23:53:39Z</time>
<speed>5.5</speed>
</trkpt>
<trkpt lat="35.855307" lon="139.390725">
<ele>38.4</ele>
<time>2026-03-26T23:53:47Z</time>
<speed>5.7</speed>
</trkpt>
<trkpt lat="35.855254" lon="139.390616">
<ele>38.6</ele>
<time>2026-03-26T23:53:49Z</time>
<speed>5.9</speed>
</trkpt>
<trkpt lat="35.855128" lon="139.390326">
<ele>38.8</ele>
<time>2026-03-26T23:53:54Z</time>
<speed>5.5</speed>
</trkpt>
<trkpt lat="35.855004" lon="139.390062">
<ele>38.8</ele>
<time>2026-03-26T23:53:59Z</time>
<speed>6.2</speed>
</trkpt>
<trkpt lat="35.854947" lon="139.389943">
<ele>38.8</ele>
<time>2026-03-26T23:54:01Z</time>
<speed>5.9</speed>
</trkpt>
<trkpt lat="35.854724" lon="139.389495">
<ele>39.2</ele>
<time>2026-03-26T23:54:09Z</time>
<speed>6.3</speed>
</trkpt>
<trkpt lat="35.854585" lon="139.389275">
<ele>39.2</ele>
<time>2026-03-26T23:54:13Z</time>
<speed>6.1</speed>
</trkpt>
<trkpt lat="35.854469" lon="139.389043">
<ele>39.2</ele>
<time>2026-03-26T23:54:17Z</time>
<speed>5.5</speed>
</trkpt>
<trkpt lat="35.854453" lon="139.388985">
<ele>39.2</ele>
<time>2026-03-26T23:54:18Z</time>
<speed>5.5</speed>
</trkpt>
<trkpt lat="35.854389" lon="139.388753">
<ele>39.4</ele>
<time>2026-03-26T23:54:22Z</time>
<speed>5.9</speed>
</trkpt>
<trkpt lat="35.854230" lon="139.388130">
<ele>39.8</ele>
<time>2026-03-26T23:54:32Z</time>
<speed>6.3</speed>
</trkpt>
<trkpt lat="35.854153" lon="139.387868">
<ele>39.8</ele>
<time>2026-03-26T23:54:36Z</time>
<speed>5.8</speed>
</trkpt>
<trkpt lat="35.854076" lon="139.387701">
<ele>39.8</ele>
<time>2026-03-26T23:54:39Z</time>
<speed>5.3</speed>
</trkpt>
<trkpt lat="35.853932" lon="139.387326">
<ele>39.8</ele>
<time>2026-03-26T23:54:46Z</time>
<speed>5.4</speed>
</trkpt>
<trkpt lat="35.853809" lon="139.387002">
<ele>39.8</ele>
<time>2026-03-26T23:54:52Z</time>
<speed>5.4</speed>
</trkpt>
<trkpt lat="35.853749" lon="139.386837">
<ele>40.0</ele>
<time>2026-03-26T23:54:55Z</time>
<speed>4.1</speed>
</trkpt>
<trkpt lat="35.853667" lon="139.386584">
<ele>40.4</ele>
<time>2026-03-26T23:55:01Z</time>
<speed>0.1</speed>
</trkpt>
<trkpt lat="35.853626" lon="139.386571">
<ele>40.4</ele>
<time>2026-03-26T23:56:15Z</time>
<speed>2.8</speed>
</trkpt>
<trkpt lat="35.853617" lon="139.386542">
<ele>40.6</ele>
<time>2026-03-26T23:56:16Z</time>
<speed>3.8</speed>
</trkpt>
<trkpt lat="35.853564" lon="139.386388">
<ele>40.6</ele>
<time>2026-03-26T23:56:20Z</time>
<speed>3.4</speed>
</trkpt>
<trkpt lat="35.853494" lon="139.386176">
<ele>40.6</ele>
<time>2026-03-26T23:56:26Z</time>
<speed>1.9</speed>
</trkpt>
<trkpt lat="35.853470" lon="139.386073">
<ele>40.4</ele>
<time>2026-03-26T23:56:31Z</time>
<speed>4.0</speed>
</trkpt>
<trkpt lat="35.853473" lon="139.385897">
<ele>40.6</ele>
<time>2026-03-26T23:56:35Z</time>
<speed>4.8</speed>
</trkpt>
<trkpt lat="35.853439" lon="139.385799">
<ele>40.6</ele>
<time>2026-03-26T23:56:37Z</time>
<speed>4.4</speed>
</trkpt>
<trkpt lat="35.853405" lon="139.385710">
<ele>40.6</ele>
<time>2026-03-26T23:56:39Z</time>
<speed>4.8</speed>
</trkpt>
<trkpt lat="35.853248" lon="139.385330">
<ele>40.8</ele>
<time>2026-03-26T23:56:47Z</time>
<speed>5.3</speed>
</trkpt>
<trkpt lat="35.853132" lon="139.385075">
<ele>40.8</ele>
<time>2026-03-26T23:56:52Z</time>
<speed>5.4</speed>
</trkpt>
<trkpt lat="35.853088" lon="139.384968">
<ele>41.0</ele>
<time>2026-03-26T23:56:54Z</time>
<speed>5.6</speed>
</trkpt>
<trkpt lat="35.852942" lon="139.384569">
<ele>41.0</ele>
<time>2026-03-26T23:57:01Z</time>
<speed>5.6</speed>
</trkpt>
<trkpt lat="35.852769" lon="139.384055">
<ele>41.2</ele>
<time>2026-03-26T23:57:10Z</time>
<speed>3.0</speed>
</trkpt>
<trkpt lat="35.852725" lon="139.383932">
<ele>41.2</ele>
<time>2026-03-26T23:57:14Z</time>
<speed>0.6</speed>
</trkpt>
<trkpt lat="35.852699" lon="139.383862">
<ele>41.4</ele>
<time>2026-03-26T23:57:26Z</time>
<speed>3.6</speed>
</trkpt>
<trkpt lat="35.852642" lon="139.383675">
<ele>41.6</ele>
<time>2026-03-26T23:57:31Z</time>
<speed>3.9</speed>
</trkpt>
<trkpt lat="35.852593" lon="139.383468">
<ele>41.6</ele>
<time>2026-03-26T23:57:36Z</time>
<speed>2.4</speed>
</trkpt>
<trkpt lat="35.852566" lon="139.383338">
<ele>41.6</ele>
<time>2026-03-26T23:57:41Z</time>
<speed>2.4</speed>
</trkpt>
</trkseg>
</trk>
</gpx>
